<?xml version="1.0" encoding="UTF-8" standalone="no" ?>
<gpx xmlns="http://www.topografix.com/GPX/1/1" xmlns:xsi="http://www.w3.org/2001/XMLSchema-instance" xsi:schemaLocation="http://www.topografix.com/GPX/1/1 http://www.topografix.com/GPX/1/1/gpx.xsd" version="1.1" creator="VisuGPX - https://www.visugpx.com">
  <metadata>
    <name>2016.08.08</name>
    <desc><![CDATA[Ouistreham (sortie avec mon fils)]]></desc>
  </metadata>
  <trk>
    <name><![CDATA[2016.08.08 Ouistreham sortie avec Thomas]]></name>
    <trkseg>
      <trkpt lat="49.2859" lon="-0.27128">
        <ele>1.58</ele>
        <time>2016-08-08T08:24:03Z</time>
      </trkpt>
      <trkpt lat="49.28593" lon="-0.27131">
        <ele>3.98</ele>
        <time>2016-08-08T08:24:13Z</time>
      </trkpt>
      <trkpt lat="49.28593" lon="-0.27133">
        <ele>5.91</ele>
        <time>2016-08-08T08:24:35Z</time>
      </trkpt>
      <trkpt lat="49.28593" lon="-0.27136">
        <ele>5.91</ele>
        <time>2016-08-08T08:24:38Z</time>
      </trkpt>
      <trkpt lat="49.28591" lon="-0.27143">
        <ele>6.87</ele>
        <time>2016-08-08T08:24:44Z</time>
      </trkpt>
      <trkpt lat="49.28585" lon="-0.27149">
        <ele>4.94</ele>
        <time>2016-08-08T08:24:48Z</time>
      </trkpt>
      <trkpt lat="49.28578" lon="-0.27154">
        <ele>4.46</ele>
        <time>2016-08-08T08:24:51Z</time>
      </trkpt>
      <trkpt lat="49.28571" lon="-0.27151">
        <ele>4.94</ele>
        <time>2016-08-08T08:24:53Z</time>
      </trkpt>
      <trkpt lat="49.28569" lon="-0.27146">
        <ele>4.94</ele>
        <time>2016-08-08T08:24:54Z</time>
      </trkpt>
      <trkpt lat="49.28567" lon="-0.27141">
        <ele>4.46</ele>
        <time>2016-08-08T08:24:55Z</time>
      </trkpt>
      <trkpt lat="49.28565" lon="-0.27135">
        <ele>3.98</ele>
        <time>2016-08-08T08:24:56Z</time>
      </trkpt>
      <trkpt lat="49.28563" lon="-0.27129">
        <ele>3.98</ele>
        <time>2016-08-08T08:24:57Z</time>
      </trkpt>
      <trkpt lat="49.28561" lon="-0.27123">
        <ele>3.98</ele>
        <time>2016-08-08T08:24:58Z</time>
      </trkpt>
      <trkpt lat="49.28555" lon="-0.27104">
        <ele>3.5</ele>
        <time>2016-08-08T08:25:01Z</time>
      </trkpt>
      <trkpt lat="49.28549" lon="-0.27087">
        <ele>3.98</ele>
        <time>2016-08-08T08:25:04Z</time>
      </trkpt>
      <trkpt lat="49.28545" lon="-0.27074">
        <ele>3.98</ele>
        <time>2016-08-08T08:25:06Z</time>
      </trkpt>
      <trkpt lat="49.28541" lon="-0.27061">
        <ele>3.02</ele>
        <time>2016-08-08T08:25:08Z</time>
      </trkpt>
      <trkpt lat="49.28539" lon="-0.27054">
        <ele>3.02</ele>
        <time>2016-08-08T08:25:09Z</time>
      </trkpt>
      <trkpt lat="49.28538" lon="-0.27047">
        <ele>3.02</ele>
        <time>2016-08-08T08:25:10Z</time>
      </trkpt>
      <trkpt lat="49.28537" lon="-0.2704">
        <ele>3.02</ele>
        <time>2016-08-08T08:25:11Z</time>
      </trkpt>
      <trkpt lat="49.28537" lon="-0.27032">
        <ele>3.02</ele>
        <time>2016-08-08T08:25:12Z</time>
      </trkpt>
      <trkpt lat="49.28538" lon="-0.27026">
        <ele>3.5</ele>
        <time>2016-08-08T08:25:13Z</time>
      </trkpt>
      <trkpt lat="49.28539" lon="-0.27019">
        <ele>3.5</ele>
        <time>2016-08-08T08:25:14Z</time>
      </trkpt>
      <trkpt lat="49.2854" lon="-0.27014">
        <ele>3.5</ele>
        <time>2016-08-08T08:25:15Z</time>
      </trkpt>
      <trkpt lat="49.2854" lon="-0.2701">
        <ele>3.98</ele>
        <time>2016-08-08T08:25:16Z</time>
      </trkpt>
      <trkpt lat="49.28539" lon="-0.27008">
        <ele>4.46</ele>
        <time>2016-08-08T08:25:17Z</time>
      </trkpt>
      <trkpt lat="49.28539" lon="-0.27">
        <ele>4.46</ele>
        <time>2016-08-08T08:25:21Z</time>
      </trkpt>
      <trkpt lat="49.28538" lon="-0.26998">
        <ele>3.98</ele>
        <time>2016-08-08T08:25:22Z</time>
      </trkpt>
      <trkpt lat="49.28536" lon="-0.26996">
        <ele>4.46</ele>
        <time>2016-08-08T08:25:23Z</time>
      </trkpt>
      <trkpt lat="49.28536" lon="-0.26993">
        <ele>4.46</ele>
        <time>2016-08-08T08:25:24Z</time>
      </trkpt>
      <trkpt lat="49.28535" lon="-0.2699">
        <ele>3.98</ele>
        <time>2016-08-08T08:25:25Z</time>
      </trkpt>
      <trkpt lat="49.28533" lon="-0.26986">
        <ele>4.46</ele>
        <time>2016-08-08T08:25:26Z</time>
      </trkpt>
      <trkpt lat="49.28532" lon="-0.26982">
        <ele>4.46</ele>
        <time>2016-08-08T08:25:27Z</time>
      </trkpt>
      <trkpt lat="49.28531" lon="-0.26978">
        <ele>4.46</ele>
        <time>2016-08-08T08:25:28Z</time>
      </trkpt>
      <trkpt lat="49.2853" lon="-0.26974">
        <ele>4.46</ele>
        <time>2016-08-08T08:25:29Z</time>
      </trkpt>
      <trkpt lat="49.28528" lon="-0.26966">
        <ele>3.98</ele>
        <time>2016-08-08T08:25:32Z</time>
      </trkpt>
      <trkpt lat="49.28524" lon="-0.26962">
        <ele>5.42</ele>
        <time>2016-08-08T08:25:43Z</time>
      </trkpt>
      <trkpt lat="49.28523" lon="-0.26962">
        <ele>5.91</ele>
        <time>2016-08-08T08:25:59Z</time>
      </trkpt>
      <trkpt lat="49.28522" lon="-0.26962">
        <ele>5.42</ele>
        <time>2016-08-08T08:26:08Z</time>
      </trkpt>
      <trkpt lat="49.28524" lon="-0.26963">
        <ele>5.42</ele>
        <time>2016-08-08T08:26:09Z</time>
      </trkpt>
      <trkpt lat="49.28527" lon="-0.26959">
        <ele>3.98</ele>
        <time>2016-08-08T08:26:17Z</time>
      </trkpt>
      <trkpt lat="49.28535" lon="-0.26938">
        <ele>3.98</ele>
        <time>2016-08-08T08:26:23Z</time>
      </trkpt>
      <trkpt lat="49.28545" lon="-0.26902">
        <ele>3.98</ele>
        <time>2016-08-08T08:26:30Z</time>
      </trkpt>
      <trkpt lat="49.28546" lon="-0.26896">
        <ele>3.98</ele>
        <time>2016-08-08T08:26:31Z</time>
      </trkpt>
      <trkpt lat="49.28546" lon="-0.2689">
        <ele>4.46</ele>
        <time>2016-08-08T08:26:32Z</time>
      </trkpt>
      <trkpt lat="49.28546" lon="-0.26883">
        <ele>4.46</ele>
        <time>2016-08-08T08:26:33Z</time>
      </trkpt>
      <trkpt lat="49.28545" lon="-0.26877">
        <ele>4.46</ele>
        <time>2016-08-08T08:26:34Z</time>
      </trkpt>
      <trkpt lat="49.28542" lon="-0.26871">
        <ele>4.46</ele>
        <time>2016-08-08T08:26:35Z</time>
      </trkpt>
      <trkpt lat="49.2854" lon="-0.26865">
        <ele>4.46</ele>
        <time>2016-08-08T08:26:36Z</time>
      </trkpt>
      <trkpt lat="49.28538" lon="-0.26859">
        <ele>4.94</ele>
        <time>2016-08-08T08:26:37Z</time>
      </trkpt>
      <trkpt lat="49.28536" lon="-0.26852">
        <ele>4.94</ele>
        <time>2016-08-08T08:26:38Z</time>
      </trkpt>
      <trkpt lat="49.28522" lon="-0.2681">
        <ele>5.91</ele>
        <time>2016-08-08T08:26:45Z</time>
      </trkpt>
      <trkpt lat="49.28504" lon="-0.26749">
        <ele>5.91</ele>
        <time>2016-08-08T08:26:57Z</time>
      </trkpt>
      <trkpt lat="49.28505" lon="-0.26744">
        <ele>5.91</ele>
        <time>2016-08-08T08:26:58Z</time>
      </trkpt>
      <trkpt lat="49.28508" lon="-0.26739">
        <ele>5.42</ele>
        <time>2016-08-08T08:26:59Z</time>
      </trkpt>
      <trkpt lat="49.28512" lon="-0.26736">
        <ele>5.42</ele>
        <time>2016-08-08T08:27:00Z</time>
      </trkpt>
      <trkpt lat="49.28516" lon="-0.26733">
        <ele>5.42</ele>
        <time>2016-08-08T08:27:01Z</time>
      </trkpt>
      <trkpt lat="49.28521" lon="-0.2673">
        <ele>5.42</ele>
        <time>2016-08-08T08:27:02Z</time>
      </trkpt>
      <trkpt lat="49.28525" lon="-0.26727">
        <ele>4.94</ele>
        <time>2016-08-08T08:27:03Z</time>
      </trkpt>
      <trkpt lat="49.2859" lon="-0.26673">
        <ele>4.94</ele>
        <time>2016-08-08T08:27:19Z</time>
      </trkpt>
      <trkpt lat="49.28608" lon="-0.26656">
        <ele>4.46</ele>
        <time>2016-08-08T08:27:24Z</time>
      </trkpt>
      <trkpt lat="49.2861" lon="-0.2665">
        <ele>4.46</ele>
        <time>2016-08-08T08:27:25Z</time>
      </trkpt>
      <trkpt lat="49.28611" lon="-0.26644">
        <ele>4.94</ele>
        <time>2016-08-08T08:27:26Z</time>
      </trkpt>
      <trkpt lat="49.28611" lon="-0.26637">
        <ele>4.46</ele>
        <time>2016-08-08T08:27:27Z</time>
      </trkpt>
      <trkpt lat="49.28609" lon="-0.2663">
        <ele>4.46</ele>
        <time>2016-08-08T08:27:28Z</time>
      </trkpt>
      <trkpt lat="49.28606" lon="-0.26624">
        <ele>4.94</ele>
        <time>2016-08-08T08:27:29Z</time>
      </trkpt>
      <trkpt lat="49.28604" lon="-0.26616">
        <ele>4.94</ele>
        <time>2016-08-08T08:27:30Z</time>
      </trkpt>
      <trkpt lat="49.28593" lon="-0.26587">
        <ele>4.94</ele>
        <time>2016-08-08T08:27:34Z</time>
      </trkpt>
      <trkpt lat="49.28571" lon="-0.26519">
        <ele>3.98</ele>
        <time>2016-08-08T08:27:46Z</time>
      </trkpt>
      <trkpt lat="49.28567" lon="-0.26507">
        <ele>4.94</ele>
        <time>2016-08-08T08:27:58Z</time>
      </trkpt>
      <trkpt lat="49.28564" lon="-0.26502">
        <ele>5.42</ele>
        <time>2016-08-08T08:28:25Z</time>
      </trkpt>
      <trkpt lat="49.28562" lon="-0.26486">
        <ele>4.46</ele>
        <time>2016-08-08T08:28:35Z</time>
      </trkpt>
      <trkpt lat="49.28563" lon="-0.26484">
        <ele>3.98</ele>
        <time>2016-08-08T08:28:36Z</time>
      </trkpt>
      <trkpt lat="49.28593" lon="-0.26475">
        <ele>3.98</ele>
        <time>2016-08-08T08:28:45Z</time>
      </trkpt>
      <trkpt lat="49.28663" lon="-0.26471">
        <ele>5.42</ele>
        <time>2016-08-08T08:29:01Z</time>
      </trkpt>
      <trkpt lat="49.28696" lon="-0.26467">
        <ele>6.39</ele>
        <time>2016-08-08T08:29:08Z</time>
      </trkpt>
      <trkpt lat="49.287" lon="-0.26467">
        <ele>6.39</ele>
        <time>2016-08-08T08:29:09Z</time>
      </trkpt>
      <trkpt lat="49.28715" lon="-0.26465">
        <ele>5.91</ele>
        <time>2016-08-08T08:29:12Z</time>
      </trkpt>
      <trkpt lat="49.2872" lon="-0.26464">
        <ele>5.91</ele>
        <time>2016-08-08T08:29:13Z</time>
      </trkpt>
      <trkpt lat="49.288" lon="-0.26452">
        <ele>7.35</ele>
        <time>2016-08-08T08:29:30Z</time>
      </trkpt>
      <trkpt lat="49.28879" lon="-0.26444">
        <ele>6.87</ele>
        <time>2016-08-08T08:29:47Z</time>
      </trkpt>
      <trkpt lat="49.28952" lon="-0.26434">
        <ele>7.83</ele>
        <time>2016-08-08T08:30:03Z</time>
      </trkpt>
      <trkpt lat="49.29" lon="-0.26428">
        <ele>6.39</ele>
        <time>2016-08-08T08:30:16Z</time>
      </trkpt>
      <trkpt lat="49.29044" lon="-0.26418">
        <ele>4.46</ele>
        <time>2016-08-08T08:30:30Z</time>
      </trkpt>
      <trkpt lat="49.29046" lon="-0.26418">
        <ele>4.94</ele>
        <time>2016-08-08T08:30:31Z</time>
      </trkpt>
      <trkpt lat="49.29049" lon="-0.26419">
        <ele>4.46</ele>
        <time>2016-08-08T08:30:33Z</time>
      </trkpt>
      <trkpt lat="49.2905" lon="-0.26416">
        <ele>4.46</ele>
        <time>2016-08-08T08:30:34Z</time>
      </trkpt>
      <trkpt lat="49.2905" lon="-0.26409">
        <ele>4.94</ele>
        <time>2016-08-08T08:30:36Z</time>
      </trkpt>
      <trkpt lat="49.29048" lon="-0.26404">
        <ele>4.94</ele>
        <time>2016-08-08T08:30:37Z</time>
      </trkpt>
      <trkpt lat="49.29047" lon="-0.26399">
        <ele>4.94</ele>
        <time>2016-08-08T08:30:38Z</time>
      </trkpt>
      <trkpt lat="49.29045" lon="-0.26392">
        <ele>4.94</ele>
        <time>2016-08-08T08:30:39Z</time>
      </trkpt>
      <trkpt lat="49.29043" lon="-0.26384">
        <ele>4.94</ele>
        <time>2016-08-08T08:30:40Z</time>
      </trkpt>
      <trkpt lat="49.29036" lon="-0.26352">
        <ele>4.94</ele>
        <time>2016-08-08T08:30:44Z</time>
      </trkpt>
      <trkpt lat="49.29035" lon="-0.26344">
        <ele>4.94</ele>
        <time>2016-08-08T08:30:45Z</time>
      </trkpt>
      <trkpt lat="49.29032" lon="-0.26328">
        <ele>5.42</ele>
        <time>2016-08-08T08:30:47Z</time>
      </trkpt>
      <trkpt lat="49.2903" lon="-0.2632">
        <ele>5.42</ele>
        <time>2016-08-08T08:30:48Z</time>
      </trkpt>
      <trkpt lat="49.29028" lon="-0.26312">
        <ele>5.42</ele>
        <time>2016-08-08T08:30:49Z</time>
      </trkpt>
      <trkpt lat="49.29026" lon="-0.26303">
        <ele>4.94</ele>
        <time>2016-08-08T08:30:50Z</time>
      </trkpt>
      <trkpt lat="49.29025" lon="-0.26295">
        <ele>4.94</ele>
        <time>2016-08-08T08:30:51Z</time>
      </trkpt>
      <trkpt lat="49.29023" lon="-0.26286">
        <ele>4.94</ele>
        <time>2016-08-08T08:30:52Z</time>
      </trkpt>
      <trkpt lat="49.29011" lon="-0.26228">
        <ele>4.46</ele>
        <time>2016-08-08T08:30:59Z</time>
      </trkpt>
      <trkpt lat="49.29011" lon="-0.26219">
        <ele>4.46</ele>
        <time>2016-08-08T08:31:00Z</time>
      </trkpt>
      <trkpt lat="49.29012" lon="-0.2621">
        <ele>4.46</ele>
        <time>2016-08-08T08:31:01Z</time>
      </trkpt>
      <trkpt lat="49.29013" lon="-0.26201">
        <ele>4.46</ele>
        <time>2016-08-08T08:31:02Z</time>
      </trkpt>
      <trkpt lat="49.29015" lon="-0.26193">
        <ele>4.46</ele>
        <time>2016-08-08T08:31:03Z</time>
      </trkpt>
      <trkpt lat="49.29017" lon="-0.26176">
        <ele>4.94</ele>
        <time>2016-08-08T08:31:05Z</time>
      </trkpt>
      <trkpt lat="49.29017" lon="-0.26167">
        <ele>4.94</ele>
        <time>2016-08-08T08:31:06Z</time>
      </trkpt>
      <trkpt lat="49.29016" lon="-0.26158">
        <ele>5.42</ele>
        <time>2016-08-08T08:31:07Z</time>
      </trkpt>
      <trkpt lat="49.29008" lon="-0.26123">
        <ele>5.91</ele>
        <time>2016-08-08T08:31:11Z</time>
      </trkpt>
      <trkpt lat="49.29" lon="-0.26098">
        <ele>5.91</ele>
        <time>2016-08-08T08:31:14Z</time>
      </trkpt>
      <trkpt lat="49.28999" lon="-0.26088">
        <ele>5.91</ele>
        <time>2016-08-08T08:31:15Z</time>
      </trkpt>
      <trkpt lat="49.29" lon="-0.2608">
        <ele>5.91</ele>
        <time>2016-08-08T08:31:16Z</time>
      </trkpt>
      <trkpt lat="49.29003" lon="-0.26071">
        <ele>5.42</ele>
        <time>2016-08-08T08:31:17Z</time>
      </trkpt>
      <trkpt lat="49.29005" lon="-0.26063">
        <ele>5.42</ele>
        <time>2016-08-08T08:31:18Z</time>
      </trkpt>
      <trkpt lat="49.29007" lon="-0.26054">
        <ele>5.42</ele>
        <time>2016-08-08T08:31:19Z</time>
      </trkpt>
      <trkpt lat="49.29005" lon="-0.26045">
        <ele>5.42</ele>
        <time>2016-08-08T08:31:20Z</time>
      </trkpt>
      <trkpt lat="49.29002" lon="-0.26037">
        <ele>5.42</ele>
        <time>2016-08-08T08:31:21Z</time>
      </trkpt>
      <trkpt lat="49.28999" lon="-0.2603">
        <ele>5.42</ele>
        <time>2016-08-08T08:31:22Z</time>
      </trkpt>
      <trkpt lat="49.28993" lon="-0.26015">
        <ele>5.42</ele>
        <time>2016-08-08T08:31:24Z</time>
      </trkpt>
      <trkpt lat="49.2899" lon="-0.26007">
        <ele>5.42</ele>
        <time>2016-08-08T08:31:25Z</time>
      </trkpt>
      <trkpt lat="49.28976" lon="-0.25923">
        <ele>5.91</ele>
        <time>2016-08-08T08:31:36Z</time>
      </trkpt>
      <trkpt lat="49.28965" lon="-0.25888">
        <ele>5.91</ele>
        <time>2016-08-08T08:31:43Z</time>
      </trkpt>
      <trkpt lat="49.28933" lon="-0.25814">
        <ele>5.42</ele>
        <time>2016-08-08T08:31:54Z</time>
      </trkpt>
      <trkpt lat="49.28915" lon="-0.25749">
        <ele>6.39</ele>
        <time>2016-08-08T08:32:05Z</time>
      </trkpt>
      <trkpt lat="49.28913" lon="-0.25743">
        <ele>6.39</ele>
        <time>2016-08-08T08:32:06Z</time>
      </trkpt>
      <trkpt lat="49.28913" lon="-0.25736">
        <ele>6.39</ele>
        <time>2016-08-08T08:32:07Z</time>
      </trkpt>
      <trkpt lat="49.28913" lon="-0.25729">
        <ele>6.39</ele>
        <time>2016-08-08T08:32:08Z</time>
      </trkpt>
      <trkpt lat="49.28912" lon="-0.25722">
        <ele>6.39</ele>
        <time>2016-08-08T08:32:09Z</time>
      </trkpt>
      <trkpt lat="49.2891" lon="-0.25715">
        <ele>6.39</ele>
        <time>2016-08-08T08:32:10Z</time>
      </trkpt>
      <trkpt lat="49.28908" lon="-0.25709">
        <ele>6.39</ele>
        <time>2016-08-08T08:32:11Z</time>
      </trkpt>
      <trkpt lat="49.28907" lon="-0.25702">
        <ele>6.39</ele>
        <time>2016-08-08T08:32:12Z</time>
      </trkpt>
      <trkpt lat="49.28905" lon="-0.25695">
        <ele>6.39</ele>
        <time>2016-08-08T08:32:13Z</time>
      </trkpt>
      <trkpt lat="49.28904" lon="-0.25688">
        <ele>6.87</ele>
        <time>2016-08-08T08:32:14Z</time>
      </trkpt>
      <trkpt lat="49.28903" lon="-0.25682">
        <ele>7.35</ele>
        <time>2016-08-08T08:32:15Z</time>
      </trkpt>
      <trkpt lat="49.28902" lon="-0.25677">
        <ele>7.83</ele>
        <time>2016-08-08T08:32:16Z</time>
      </trkpt>
      <trkpt lat="49.28889" lon="-0.25624">
        <ele>8.31</ele>
        <time>2016-08-08T08:32:30Z</time>
      </trkpt>
      <trkpt lat="49.28865" lon="-0.25518">
        <ele>7.35</ele>
        <time>2016-08-08T08:32:43Z</time>
      </trkpt>
      <trkpt lat="49.28862" lon="-0.25513">
        <ele>7.35</ele>
        <time>2016-08-08T08:32:44Z</time>
      </trkpt>
      <trkpt lat="49.28859" lon="-0.25509">
        <ele>7.35</ele>
        <time>2016-08-08T08:32:45Z</time>
      </trkpt>
      <trkpt lat="49.28855" lon="-0.25508">
        <ele>7.35</ele>
        <time>2016-08-08T08:32:46Z</time>
      </trkpt>
      <trkpt lat="49.28852" lon="-0.25507">
        <ele>6.87</ele>
        <time>2016-08-08T08:32:47Z</time>
      </trkpt>
      <trkpt lat="49.2884" lon="-0.25502">
        <ele>5.42</ele>
        <time>2016-08-08T08:32:52Z</time>
      </trkpt>
      <trkpt lat="49.28837" lon="-0.25504">
        <ele>4.94</ele>
        <time>2016-08-08T08:32:53Z</time>
      </trkpt>
      <trkpt lat="49.28836" lon="-0.25508">
        <ele>4.46</ele>
        <time>2016-08-08T08:32:54Z</time>
      </trkpt>
      <trkpt lat="49.28822" lon="-0.25575">
        <ele>2.54</ele>
        <time>2016-08-08T08:33:05Z</time>
      </trkpt>
      <trkpt lat="49.28821" lon="-0.25582">
        <ele>2.54</ele>
        <time>2016-08-08T08:33:06Z</time>
      </trkpt>
      <trkpt lat="49.2882" lon="-0.25589">
        <ele>2.54</ele>
        <time>2016-08-08T08:33:07Z</time>
      </trkpt>
      <trkpt lat="49.28821" lon="-0.25596">
        <ele>2.06</ele>
        <time>2016-08-08T08:33:08Z</time>
      </trkpt>
      <trkpt lat="49.28821" lon="-0.25603">
        <ele>2.06</ele>
        <time>2016-08-08T08:33:09Z</time>
      </trkpt>
      <trkpt lat="49.2882" lon="-0.25609">
        <ele>2.06</ele>
        <time>2016-08-08T08:33:10Z</time>
      </trkpt>
      <trkpt lat="49.28818" lon="-0.25615">
        <ele>2.06</ele>
        <time>2016-08-08T08:33:11Z</time>
      </trkpt>
      <trkpt lat="49.28814" lon="-0.25618">
        <ele>2.06</ele>
        <time>2016-08-08T08:33:12Z</time>
      </trkpt>
      <trkpt lat="49.2881" lon="-0.25619">
        <ele>2.06</ele>
        <time>2016-08-08T08:33:13Z</time>
      </trkpt>
      <trkpt lat="49.28806" lon="-0.25617">
        <ele>2.06</ele>
        <time>2016-08-08T08:33:14Z</time>
      </trkpt>
      <trkpt lat="49.28803" lon="-0.25612">
        <ele>2.06</ele>
        <time>2016-08-08T08:33:15Z</time>
      </trkpt>
      <trkpt lat="49.28801" lon="-0.25606">
        <ele>2.54</ele>
        <time>2016-08-08T08:33:16Z</time>
      </trkpt>
      <trkpt lat="49.28799" lon="-0.256">
        <ele>2.54</ele>
        <time>2016-08-08T08:33:17Z</time>
      </trkpt>
      <trkpt lat="49.28792" lon="-0.25571">
        <ele>2.54</ele>
        <time>2016-08-08T08:33:21Z</time>
      </trkpt>
      <trkpt lat="49.28787" lon="-0.25546">
        <ele>2.06</ele>
        <time>2016-08-08T08:33:24Z</time>
      </trkpt>
      <trkpt lat="49.2876" lon="-0.25422">
        <ele>3.02</ele>
        <time>2016-08-08T08:33:38Z</time>
      </trkpt>
      <trkpt lat="49.28758" lon="-0.25413">
        <ele>3.5</ele>
        <time>2016-08-08T08:33:39Z</time>
      </trkpt>
      <trkpt lat="49.28753" lon="-0.25396">
        <ele>3.98</ele>
        <time>2016-08-08T08:33:41Z</time>
      </trkpt>
      <trkpt lat="49.28721" lon="-0.25251">
        <ele>4.94</ele>
        <time>2016-08-08T08:33:59Z</time>
      </trkpt>
      <trkpt lat="49.28717" lon="-0.25229">
        <ele>5.91</ele>
        <time>2016-08-08T08:34:04Z</time>
      </trkpt>
      <trkpt lat="49.28716" lon="-0.25223">
        <ele>5.91</ele>
        <time>2016-08-08T08:34:05Z</time>
      </trkpt>
      <trkpt lat="49.28694" lon="-0.25121">
        <ele>5.42</ele>
        <time>2016-08-08T08:34:17Z</time>
      </trkpt>
      <trkpt lat="49.28681" lon="-0.25067">
        <ele>4.94</ele>
        <time>2016-08-08T08:34:23Z</time>
      </trkpt>
      <trkpt lat="49.28675" lon="-0.25038">
        <ele>4.94</ele>
        <time>2016-08-08T08:34:26Z</time>
      </trkpt>
      <trkpt lat="49.28674" lon="-0.25028">
        <ele>4.94</ele>
        <time>2016-08-08T08:34:27Z</time>
      </trkpt>
      <trkpt lat="49.28674" lon="-0.25018">
        <ele>4.46</ele>
        <time>2016-08-08T08:34:28Z</time>
      </trkpt>
      <trkpt lat="49.28674" lon="-0.24999">
        <ele>4.46</ele>
        <time>2016-08-08T08:34:30Z</time>
      </trkpt>
      <trkpt lat="49.28673" lon="-0.2499">
        <ele>3.98</ele>
        <time>2016-08-08T08:34:31Z</time>
      </trkpt>
      <trkpt lat="49.28672" lon="-0.24983">
        <ele>4.46</ele>
        <time>2016-08-08T08:34:32Z</time>
      </trkpt>
      <trkpt lat="49.2867" lon="-0.24977">
        <ele>4.94</ele>
        <time>2016-08-08T08:34:33Z</time>
      </trkpt>
      <trkpt lat="49.28667" lon="-0.24973">
        <ele>4.94</ele>
        <time>2016-08-08T08:34:34Z</time>
      </trkpt>
      <trkpt lat="49.28663" lon="-0.24972">
        <ele>4.94</ele>
        <time>2016-08-08T08:34:35Z</time>
      </trkpt>
      <trkpt lat="49.28658" lon="-0.24973">
        <ele>4.94</ele>
        <time>2016-08-08T08:34:36Z</time>
      </trkpt>
      <trkpt lat="49.28653" lon="-0.24975">
        <ele>4.46</ele>
        <time>2016-08-08T08:34:37Z</time>
      </trkpt>
      <trkpt lat="49.28648" lon="-0.24978">
        <ele>4.46</ele>
        <time>2016-08-08T08:34:38Z</time>
      </trkpt>
      <trkpt lat="49.28571" lon="-0.25009">
        <ele>1.58</ele>
        <time>2016-08-08T08:34:52Z</time>
      </trkpt>
      <trkpt lat="49.28499" lon="-0.25028">
        <ele>2.54</ele>
        <time>2016-08-08T08:35:05Z</time>
      </trkpt>
      <trkpt lat="49.28424" lon="-0.25047">
        <ele>2.06</ele>
        <time>2016-08-08T08:35:20Z</time>
      </trkpt>
      <trkpt lat="49.28414" lon="-0.2505">
        <ele>1.58</ele>
        <time>2016-08-08T08:35:22Z</time>
      </trkpt>
      <trkpt lat="49.28374" lon="-0.25058">
        <ele>1.58</ele>
        <time>2016-08-08T08:35:31Z</time>
      </trkpt>
      <trkpt lat="49.2837" lon="-0.25059">
        <ele>1.58</ele>
        <time>2016-08-08T08:35:32Z</time>
      </trkpt>
      <trkpt lat="49.28314" lon="-0.2507">
        <ele>3.02</ele>
        <time>2016-08-08T08:35:47Z</time>
      </trkpt>
      <trkpt lat="49.2831" lon="-0.25071">
        <ele>3.02</ele>
        <time>2016-08-08T08:35:48Z</time>
      </trkpt>
      <trkpt lat="49.28267" lon="-0.25057">
        <ele>3.98</ele>
        <time>2016-08-08T08:36:00Z</time>
      </trkpt>
      <trkpt lat="49.28262" lon="-0.25043">
        <ele>3.5</ele>
        <time>2016-08-08T08:36:03Z</time>
      </trkpt>
      <trkpt lat="49.28262" lon="-0.25037">
        <ele>3.5</ele>
        <time>2016-08-08T08:36:04Z</time>
      </trkpt>
      <trkpt lat="49.28263" lon="-0.25033">
        <ele>3.5</ele>
        <time>2016-08-08T08:36:05Z</time>
      </trkpt>
      <trkpt lat="49.28268" lon="-0.25009">
        <ele>3.5</ele>
        <time>2016-08-08T08:36:12Z</time>
      </trkpt>
      <trkpt lat="49.28265" lon="-0.25001">
        <ele>3.98</ele>
        <time>2016-08-08T08:36:14Z</time>
      </trkpt>
      <trkpt lat="49.28241" lon="-0.24947">
        <ele>3.5</ele>
        <time>2016-08-08T08:36:26Z</time>
      </trkpt>
      <trkpt lat="49.28235" lon="-0.24944">
        <ele>2.54</ele>
        <time>2016-08-08T08:36:28Z</time>
      </trkpt>
      <trkpt lat="49.28233" lon="-0.24944">
        <ele>2.54</ele>
        <time>2016-08-08T08:36:30Z</time>
      </trkpt>
      <trkpt lat="49.28232" lon="-0.24943">
        <ele>3.02</ele>
        <time>2016-08-08T08:36:31Z</time>
      </trkpt>
      <trkpt lat="49.28232" lon="-0.24941">
        <ele>2.54</ele>
        <time>2016-08-08T08:36:32Z</time>
      </trkpt>
      <trkpt lat="49.28232" lon="-0.24938">
        <ele>2.54</ele>
        <time>2016-08-08T08:36:33Z</time>
      </trkpt>
      <trkpt lat="49.28231" lon="-0.24936">
        <ele>2.54</ele>
        <time>2016-08-08T08:36:34Z</time>
      </trkpt>
      <trkpt lat="49.28227" lon="-0.24929">
        <ele>2.06</ele>
        <time>2016-08-08T08:36:38Z</time>
      </trkpt>
      <trkpt lat="49.28225" lon="-0.24929">
        <ele>2.06</ele>
        <time>2016-08-08T08:36:39Z</time>
      </trkpt>
      <trkpt lat="49.28224" lon="-0.2493">
        <ele>2.06</ele>
        <time>2016-08-08T08:36:40Z</time>
      </trkpt>
      <trkpt lat="49.28222" lon="-0.24931">
        <ele>2.54</ele>
        <time>2016-08-08T08:36:41Z</time>
      </trkpt>
      <trkpt lat="49.28219" lon="-0.24932">
        <ele>3.02</ele>
        <time>2016-08-08T08:36:42Z</time>
      </trkpt>
      <trkpt lat="49.28169" lon="-0.24956">
        <ele>3.5</ele>
        <time>2016-08-08T08:36:58Z</time>
      </trkpt>
      <trkpt lat="49.28126" lon="-0.24972">
        <ele>3.02</ele>
        <time>2016-08-08T08:37:11Z</time>
      </trkpt>
      <trkpt lat="49.2809" lon="-0.24962">
        <ele>3.5</ele>
        <time>2016-08-08T08:37:24Z</time>
      </trkpt>
      <trkpt lat="49.28085" lon="-0.2496">
        <ele>3.5</ele>
        <time>2016-08-08T08:37:26Z</time>
      </trkpt>
      <trkpt lat="49.28082" lon="-0.24961">
        <ele>3.98</ele>
        <time>2016-08-08T08:37:27Z</time>
      </trkpt>
      <trkpt lat="49.28066" lon="-0.24966">
        <ele>3.98</ele>
        <time>2016-08-08T08:37:35Z</time>
      </trkpt>
      <trkpt lat="49.28065" lon="-0.24966">
        <ele>3.98</ele>
        <time>2016-08-08T08:37:36Z</time>
      </trkpt>
      <trkpt lat="49.28063" lon="-0.24966">
        <ele>3.98</ele>
        <time>2016-08-08T08:37:37Z</time>
      </trkpt>
      <trkpt lat="49.28062" lon="-0.24966">
        <ele>3.98</ele>
        <time>2016-08-08T08:37:38Z</time>
      </trkpt>
      <trkpt lat="49.2806" lon="-0.24967">
        <ele>3.98</ele>
        <time>2016-08-08T08:37:39Z</time>
      </trkpt>
      <trkpt lat="49.28058" lon="-0.24967">
        <ele>3.98</ele>
        <time>2016-08-08T08:37:40Z</time>
      </trkpt>
      <trkpt lat="49.28024" lon="-0.24964">
        <ele>3.02</ele>
        <time>2016-08-08T08:37:54Z</time>
      </trkpt>
      <trkpt lat="49.28016" lon="-0.24963">
        <ele>2.54</ele>
        <time>2016-08-08T08:37:56Z</time>
      </trkpt>
      <trkpt lat="49.28011" lon="-0.24964">
        <ele>2.54</ele>
        <time>2016-08-08T08:37:57Z</time>
      </trkpt>
      <trkpt lat="49.28007" lon="-0.24966">
        <ele>2.54</ele>
        <time>2016-08-08T08:37:58Z</time>
      </trkpt>
      <trkpt lat="49.27998" lon="-0.2497">
        <ele>3.02</ele>
        <time>2016-08-08T08:38:00Z</time>
      </trkpt>
      <trkpt lat="49.27975" lon="-0.24976">
        <ele>4.46</ele>
        <time>2016-08-08T08:38:05Z</time>
      </trkpt>
      <trkpt lat="49.27934" lon="-0.24986">
        <ele>4.46</ele>
        <time>2016-08-08T08:38:17Z</time>
      </trkpt>
      <trkpt lat="49.27896" lon="-0.24997">
        <ele>4.46</ele>
        <time>2016-08-08T08:38:30Z</time>
      </trkpt>
      <trkpt lat="49.2788" lon="-0.25">
        <ele>4.94</ele>
        <time>2016-08-08T08:38:34Z</time>
      </trkpt>
      <trkpt lat="49.27876" lon="-0.25002">
        <ele>4.94</ele>
        <time>2016-08-08T08:38:35Z</time>
      </trkpt>
      <trkpt lat="49.27846" lon="-0.25012">
        <ele>4.46</ele>
        <time>2016-08-08T08:38:41Z</time>
      </trkpt>
      <trkpt lat="49.27838" lon="-0.25013">
        <ele>4.46</ele>
        <time>2016-08-08T08:38:44Z</time>
      </trkpt>
      <trkpt lat="49.27837" lon="-0.25015">
        <ele>4.46</ele>
        <time>2016-08-08T08:38:45Z</time>
      </trkpt>
      <trkpt lat="49.27836" lon="-0.25019">
        <ele>3.98</ele>
        <time>2016-08-08T08:38:46Z</time>
      </trkpt>
      <trkpt lat="49.27835" lon="-0.25028">
        <ele>1.58</ele>
        <time>2016-08-08T08:38:52Z</time>
      </trkpt>
      <trkpt lat="49.27835" lon="-0.25036">
        <ele>1.1</ele>
        <time>2016-08-08T08:38:58Z</time>
      </trkpt>
      <trkpt lat="49.27808" lon="-0.25042">
        <ele>1.1</ele>
        <time>2016-08-08T08:39:08Z</time>
      </trkpt>
      <trkpt lat="49.27769" lon="-0.25054">
        <ele>2.06</ele>
        <time>2016-08-08T08:39:18Z</time>
      </trkpt>
      <trkpt lat="49.27747" lon="-0.25064">
        <ele>3.5</ele>
        <time>2016-08-08T08:39:24Z</time>
      </trkpt>
      <trkpt lat="49.27725" lon="-0.25071">
        <ele>3.98</ele>
        <time>2016-08-08T08:39:29Z</time>
      </trkpt>
      <trkpt lat="49.27667" lon="-0.25085">
        <ele>6.39</ele>
        <time>2016-08-08T08:39:42Z</time>
      </trkpt>
      <trkpt lat="49.27597" lon="-0.25101">
        <ele>6.39</ele>
        <time>2016-08-08T08:39:58Z</time>
      </trkpt>
      <trkpt lat="49.27557" lon="-0.25112">
        <ele>5.91</ele>
        <time>2016-08-08T08:40:07Z</time>
      </trkpt>
      <trkpt lat="49.27485" lon="-0.25131">
        <ele>5.42</ele>
        <time>2016-08-08T08:40:22Z</time>
      </trkpt>
      <trkpt lat="49.2743" lon="-0.25147">
        <ele>4.94</ele>
        <time>2016-08-08T08:40:35Z</time>
      </trkpt>
      <trkpt lat="49.27347" lon="-0.25172">
        <ele>5.42</ele>
        <time>2016-08-08T08:40:52Z</time>
      </trkpt>
      <trkpt lat="49.27337" lon="-0.25174">
        <ele>5.42</ele>
        <time>2016-08-08T08:40:54Z</time>
      </trkpt>
      <trkpt lat="49.27332" lon="-0.25175">
        <ele>5.42</ele>
        <time>2016-08-08T08:40:55Z</time>
      </trkpt>
      <trkpt lat="49.27312" lon="-0.2518">
        <ele>4.94</ele>
        <time>2016-08-08T08:40:59Z</time>
      </trkpt>
      <trkpt lat="49.27303" lon="-0.25183">
        <ele>4.94</ele>
        <time>2016-08-08T08:41:01Z</time>
      </trkpt>
      <trkpt lat="49.27256" lon="-0.25203">
        <ele>4.46</ele>
        <time>2016-08-08T08:41:14Z</time>
      </trkpt>
      <trkpt lat="49.27239" lon="-0.25212">
        <ele>4.46</ele>
        <time>2016-08-08T08:41:20Z</time>
      </trkpt>
      <trkpt lat="49.27236" lon="-0.25211">
        <ele>4.46</ele>
        <time>2016-08-08T08:41:21Z</time>
      </trkpt>
      <trkpt lat="49.27234" lon="-0.25209">
        <ele>4.46</ele>
        <time>2016-08-08T08:41:22Z</time>
      </trkpt>
      <trkpt lat="49.27232" lon="-0.25208">
        <ele>4.46</ele>
        <time>2016-08-08T08:41:23Z</time>
      </trkpt>
      <trkpt lat="49.27231" lon="-0.25206">
        <ele>4.46</ele>
        <time>2016-08-08T08:41:24Z</time>
      </trkpt>
      <trkpt lat="49.27228" lon="-0.25205">
        <ele>4.46</ele>
        <time>2016-08-08T08:41:35Z</time>
      </trkpt>
      <trkpt lat="49.27228" lon="-0.25203">
        <ele>6.39</ele>
        <time>2016-08-08T08:42:08Z</time>
      </trkpt>
      <trkpt lat="49.27227" lon="-0.25204">
        <ele>4.46</ele>
        <time>2016-08-08T08:42:28Z</time>
      </trkpt>
      <trkpt lat="49.27194" lon="-0.25215">
        <ele>3.5</ele>
        <time>2016-08-08T08:42:41Z</time>
      </trkpt>
      <trkpt lat="49.27143" lon="-0.2522">
        <ele>3.5</ele>
        <time>2016-08-08T08:42:55Z</time>
      </trkpt>
      <trkpt lat="49.27099" lon="-0.25231">
        <ele>3.02</ele>
        <time>2016-08-08T08:43:08Z</time>
      </trkpt>
      <trkpt lat="49.2707" lon="-0.2523">
        <ele>2.06</ele>
        <time>2016-08-08T08:43:19Z</time>
      </trkpt>
      <trkpt lat="49.27066" lon="-0.25229">
        <ele>1.58</ele>
        <time>2016-08-08T08:43:29Z</time>
      </trkpt>
      <trkpt lat="49.27065" lon="-0.2523">
        <ele>2.54</ele>
        <time>2016-08-08T08:43:45Z</time>
      </trkpt>
      <trkpt lat="49.27064" lon="-0.25228">
        <ele>3.02</ele>
        <time>2016-08-08T08:44:06Z</time>
      </trkpt>
      <trkpt lat="49.27062" lon="-0.25222">
        <ele>3.02</ele>
        <time>2016-08-08T08:44:17Z</time>
      </trkpt>
      <trkpt lat="49.27062" lon="-0.25221">
        <ele>3.02</ele>
        <time>2016-08-08T08:44:18Z</time>
      </trkpt>
      <trkpt lat="49.27061" lon="-0.2522">
        <ele>2.54</ele>
        <time>2016-08-08T08:44:19Z</time>
      </trkpt>
      <trkpt lat="49.27059" lon="-0.25218">
        <ele>2.54</ele>
        <time>2016-08-08T08:44:20Z</time>
      </trkpt>
      <trkpt lat="49.27058" lon="-0.25218">
        <ele>2.54</ele>
        <time>2016-08-08T08:44:21Z</time>
      </trkpt>
      <trkpt lat="49.27056" lon="-0.25219">
        <ele>2.54</ele>
        <time>2016-08-08T08:44:22Z</time>
      </trkpt>
      <trkpt lat="49.27055" lon="-0.2522">
        <ele>3.02</ele>
        <time>2016-08-08T08:44:23Z</time>
      </trkpt>
      <trkpt lat="49.27053" lon="-0.25221">
        <ele>3.02</ele>
        <time>2016-08-08T08:44:24Z</time>
      </trkpt>
      <trkpt lat="49.2705" lon="-0.25222">
        <ele>3.02</ele>
        <time>2016-08-08T08:44:25Z</time>
      </trkpt>
      <trkpt lat="49.26998" lon="-0.25237">
        <ele>3.02</ele>
        <time>2016-08-08T08:44:37Z</time>
      </trkpt>
      <trkpt lat="49.26956" lon="-0.25245">
        <ele>4.46</ele>
        <time>2016-08-08T08:44:50Z</time>
      </trkpt>
      <trkpt lat="49.26945" lon="-0.25247">
        <ele>4.94</ele>
        <time>2016-08-08T08:44:55Z</time>
      </trkpt>
      <trkpt lat="49.26943" lon="-0.25249">
        <ele>4.94</ele>
        <time>2016-08-08T08:44:56Z</time>
      </trkpt>
      <trkpt lat="49.26941" lon="-0.2525">
        <ele>5.42</ele>
        <time>2016-08-08T08:44:57Z</time>
      </trkpt>
      <trkpt lat="49.26935" lon="-0.25253">
        <ele>4.46</ele>
        <time>2016-08-08T08:45:09Z</time>
      </trkpt>
      <trkpt lat="49.26933" lon="-0.25254">
        <ele>3.98</ele>
        <time>2016-08-08T08:45:10Z</time>
      </trkpt>
      <trkpt lat="49.2693" lon="-0.25256">
        <ele>3.98</ele>
        <time>2016-08-08T08:45:11Z</time>
      </trkpt>
      <trkpt lat="49.26927" lon="-0.25257">
        <ele>3.98</ele>
        <time>2016-08-08T08:45:12Z</time>
      </trkpt>
      <trkpt lat="49.26924" lon="-0.25257">
        <ele>3.98</ele>
        <time>2016-08-08T08:45:13Z</time>
      </trkpt>
      <trkpt lat="49.2692" lon="-0.25258">
        <ele>4.46</ele>
        <time>2016-08-08T08:45:14Z</time>
      </trkpt>
      <trkpt lat="49.26901" lon="-0.25264">
        <ele>5.42</ele>
        <time>2016-08-08T08:45:19Z</time>
      </trkpt>
      <trkpt lat="49.26897" lon="-0.25265">
        <ele>5.42</ele>
        <time>2016-08-08T08:45:20Z</time>
      </trkpt>
      <trkpt lat="49.26888" lon="-0.25267">
        <ele>5.91</ele>
        <time>2016-08-08T08:45:22Z</time>
      </trkpt>
      <trkpt lat="49.26811" lon="-0.25286">
        <ele>6.39</ele>
        <time>2016-08-08T08:45:39Z</time>
      </trkpt>
      <trkpt lat="49.26727" lon="-0.2531">
        <ele>5.42</ele>
        <time>2016-08-08T08:45:55Z</time>
      </trkpt>
      <trkpt lat="49.26636" lon="-0.25336">
        <ele>4.94</ele>
        <time>2016-08-08T08:46:12Z</time>
      </trkpt>
      <trkpt lat="49.2655" lon="-0.25362">
        <ele>4.46</ele>
        <time>2016-08-08T08:46:29Z</time>
      </trkpt>
      <trkpt lat="49.26452" lon="-0.25386">
        <ele>5.42</ele>
        <time>2016-08-08T08:46:47Z</time>
      </trkpt>
      <trkpt lat="49.26391" lon="-0.25411">
        <ele>4.94</ele>
        <time>2016-08-08T08:47:00Z</time>
      </trkpt>
      <trkpt lat="49.26318" lon="-0.25447">
        <ele>4.46</ele>
        <time>2016-08-08T08:47:16Z</time>
      </trkpt>
      <trkpt lat="49.26213" lon="-0.2551">
        <ele>3.5</ele>
        <time>2016-08-08T08:47:36Z</time>
      </trkpt>
      <trkpt lat="49.26112" lon="-0.25583">
        <ele>3.02</ele>
        <time>2016-08-08T08:47:54Z</time>
      </trkpt>
      <trkpt lat="49.26019" lon="-0.25658">
        <ele>2.54</ele>
        <time>2016-08-08T08:48:10Z</time>
      </trkpt>
      <trkpt lat="49.25914" lon="-0.25758">
        <ele>2.06</ele>
        <time>2016-08-08T08:48:31Z</time>
      </trkpt>
      <trkpt lat="49.25843" lon="-0.25839">
        <ele>2.06</ele>
        <time>2016-08-08T08:48:48Z</time>
      </trkpt>
      <trkpt lat="49.2583" lon="-0.25855">
        <ele>2.06</ele>
        <time>2016-08-08T08:48:51Z</time>
      </trkpt>
      <trkpt lat="49.25826" lon="-0.25861">
        <ele>2.06</ele>
        <time>2016-08-08T08:48:52Z</time>
      </trkpt>
      <trkpt lat="49.25823" lon="-0.25868">
        <ele>2.06</ele>
        <time>2016-08-08T08:48:53Z</time>
      </trkpt>
      <trkpt lat="49.25772" lon="-0.25978">
        <ele>3.02</ele>
        <time>2016-08-08T08:49:09Z</time>
      </trkpt>
      <trkpt lat="49.25763" lon="-0.25996">
        <ele>3.02</ele>
        <time>2016-08-08T08:49:12Z</time>
      </trkpt>
      <trkpt lat="49.25724" lon="-0.26104">
        <ele>1.58</ele>
        <time>2016-08-08T08:49:28Z</time>
      </trkpt>
      <trkpt lat="49.2571" lon="-0.26145">
        <ele>1.58</ele>
        <time>2016-08-08T08:49:34Z</time>
      </trkpt>
      <trkpt lat="49.25679" lon="-0.26233">
        <ele>1.58</ele>
        <time>2016-08-08T08:49:48Z</time>
      </trkpt>
      <trkpt lat="49.25667" lon="-0.26266">
        <ele>1.58</ele>
        <time>2016-08-08T08:49:53Z</time>
      </trkpt>
      <trkpt lat="49.25633" lon="-0.26344">
        <ele>1.58</ele>
        <time>2016-08-08T08:50:05Z</time>
      </trkpt>
      <trkpt lat="49.25582" lon="-0.26443">
        <ele>1.58</ele>
        <time>2016-08-08T08:50:21Z</time>
      </trkpt>
      <trkpt lat="49.25557" lon="-0.2648">
        <ele>1.1</ele>
        <time>2016-08-08T08:50:28Z</time>
      </trkpt>
      <trkpt lat="49.25553" lon="-0.26486">
        <ele>1.58</ele>
        <time>2016-08-08T08:50:29Z</time>
      </trkpt>
      <trkpt lat="49.25499" lon="-0.26557">
        <ele>2.54</ele>
        <time>2016-08-08T08:50:44Z</time>
      </trkpt>
      <trkpt lat="49.25425" lon="-0.26636">
        <ele>3.02</ele>
        <time>2016-08-08T08:51:03Z</time>
      </trkpt>
      <trkpt lat="49.25402" lon="-0.26659">
        <ele>2.54</ele>
        <time>2016-08-08T08:51:09Z</time>
      </trkpt>
      <trkpt lat="49.25382" lon="-0.26679">
        <ele>3.02</ele>
        <time>2016-08-08T08:51:19Z</time>
      </trkpt>
      <trkpt lat="49.25381" lon="-0.26679">
        <ele>3.5</ele>
        <time>2016-08-08T08:51:31Z</time>
      </trkpt>
      <trkpt lat="49.2538" lon="-0.26677">
        <ele>3.5</ele>
        <time>2016-08-08T08:52:09Z</time>
      </trkpt>
      <trkpt lat="49.2538" lon="-0.2668">
        <ele>4.94</ele>
        <time>2016-08-08T08:52:30Z</time>
      </trkpt>
      <trkpt lat="49.25383" lon="-0.2668">
        <ele>5.42</ele>
        <time>2016-08-08T08:52:47Z</time>
      </trkpt>
      <trkpt lat="49.25384" lon="-0.2668">
        <ele>3.98</ele>
        <time>2016-08-08T08:53:19Z</time>
      </trkpt>
      <trkpt lat="49.25386" lon="-0.26679">
        <ele>3.98</ele>
        <time>2016-08-08T08:53:29Z</time>
      </trkpt>
      <trkpt lat="49.25387" lon="-0.26678">
        <ele>3.98</ele>
        <time>2016-08-08T08:53:30Z</time>
      </trkpt>
      <trkpt lat="49.25388" lon="-0.26676">
        <ele>3.98</ele>
        <time>2016-08-08T08:53:31Z</time>
      </trkpt>
      <trkpt lat="49.25389" lon="-0.26673">
        <ele>3.98</ele>
        <time>2016-08-08T08:53:32Z</time>
      </trkpt>
      <trkpt lat="49.2539" lon="-0.26671">
        <ele>3.98</ele>
        <time>2016-08-08T08:53:33Z</time>
      </trkpt>
      <trkpt lat="49.25392" lon="-0.26668">
        <ele>3.98</ele>
        <time>2016-08-08T08:53:34Z</time>
      </trkpt>
      <trkpt lat="49.25428" lon="-0.26632">
        <ele>3.5</ele>
        <time>2016-08-08T08:53:46Z</time>
      </trkpt>
      <trkpt lat="49.25488" lon="-0.26568">
        <ele>4.46</ele>
        <time>2016-08-08T08:54:05Z</time>
      </trkpt>
      <trkpt lat="49.25495" lon="-0.2656">
        <ele>4.46</ele>
        <time>2016-08-08T08:54:07Z</time>
      </trkpt>
      <trkpt lat="49.25545" lon="-0.26496">
        <ele>4.94</ele>
        <time>2016-08-08T08:54:22Z</time>
      </trkpt>
      <trkpt lat="49.25567" lon="-0.26463">
        <ele>4.46</ele>
        <time>2016-08-08T08:54:29Z</time>
      </trkpt>
      <trkpt lat="49.25615" lon="-0.26377">
        <ele>4.46</ele>
        <time>2016-08-08T08:54:45Z</time>
      </trkpt>
      <trkpt lat="49.25656" lon="-0.26292">
        <ele>4.46</ele>
        <time>2016-08-08T08:55:00Z</time>
      </trkpt>
      <trkpt lat="49.25697" lon="-0.2618">
        <ele>3.98</ele>
        <time>2016-08-08T08:55:18Z</time>
      </trkpt>
      <trkpt lat="49.25732" lon="-0.26081">
        <ele>3.98</ele>
        <time>2016-08-08T08:55:34Z</time>
      </trkpt>
      <trkpt lat="49.25771" lon="-0.2598">
        <ele>3.98</ele>
        <time>2016-08-08T08:55:50Z</time>
      </trkpt>
      <trkpt lat="49.2578" lon="-0.25961">
        <ele>3.98</ele>
        <time>2016-08-08T08:55:53Z</time>
      </trkpt>
      <trkpt lat="49.25782" lon="-0.25954">
        <ele>3.98</ele>
        <time>2016-08-08T08:55:54Z</time>
      </trkpt>
      <trkpt lat="49.25808" lon="-0.25898">
        <ele>3.5</ele>
        <time>2016-08-08T08:56:03Z</time>
      </trkpt>
      <trkpt lat="49.25828" lon="-0.25861">
        <ele>4.94</ele>
        <time>2016-08-08T08:56:10Z</time>
      </trkpt>
      <trkpt lat="49.25832" lon="-0.25856">
        <ele>4.46</ele>
        <time>2016-08-08T08:56:11Z</time>
      </trkpt>
      <trkpt lat="49.25835" lon="-0.25851">
        <ele>4.46</ele>
        <time>2016-08-08T08:56:12Z</time>
      </trkpt>
      <trkpt lat="49.25839" lon="-0.25847">
        <ele>4.46</ele>
        <time>2016-08-08T08:56:13Z</time>
      </trkpt>
      <trkpt lat="49.25842" lon="-0.25842">
        <ele>4.46</ele>
        <time>2016-08-08T08:56:14Z</time>
      </trkpt>
      <trkpt lat="49.25845" lon="-0.25838">
        <ele>4.46</ele>
        <time>2016-08-08T08:56:15Z</time>
      </trkpt>
      <trkpt lat="49.25903" lon="-0.25773">
        <ele>4.94</ele>
        <time>2016-08-08T08:56:30Z</time>
      </trkpt>
      <trkpt lat="49.25906" lon="-0.25769">
        <ele>4.46</ele>
        <time>2016-08-08T08:56:31Z</time>
      </trkpt>
      <trkpt lat="49.25941" lon="-0.25735">
        <ele>4.46</ele>
        <time>2016-08-08T08:56:43Z</time>
      </trkpt>
      <trkpt lat="49.25969" lon="-0.25705">
        <ele>4.94</ele>
        <time>2016-08-08T08:56:51Z</time>
      </trkpt>
      <trkpt lat="49.26016" lon="-0.25663">
        <ele>5.42</ele>
        <time>2016-08-08T08:57:04Z</time>
      </trkpt>
      <trkpt lat="49.26087" lon="-0.25603">
        <ele>3.98</ele>
        <time>2016-08-08T08:57:18Z</time>
      </trkpt>
      <trkpt lat="49.26092" lon="-0.25599">
        <ele>3.98</ele>
        <time>2016-08-08T08:57:19Z</time>
      </trkpt>
      <trkpt lat="49.26097" lon="-0.25595">
        <ele>3.98</ele>
        <time>2016-08-08T08:57:20Z</time>
      </trkpt>
      <trkpt lat="49.26163" lon="-0.25544">
        <ele>4.46</ele>
        <time>2016-08-08T08:57:35Z</time>
      </trkpt>
      <trkpt lat="49.26229" lon="-0.255">
        <ele>4.94</ele>
        <time>2016-08-08T08:57:50Z</time>
      </trkpt>
      <trkpt lat="49.26298" lon="-0.2546">
        <ele>4.94</ele>
        <time>2016-08-08T08:58:06Z</time>
      </trkpt>
      <trkpt lat="49.26384" lon="-0.25414">
        <ele>4.94</ele>
        <time>2016-08-08T08:58:25Z</time>
      </trkpt>
      <trkpt lat="49.26462" lon="-0.25382">
        <ele>4.46</ele>
        <time>2016-08-08T08:58:40Z</time>
      </trkpt>
      <trkpt lat="49.26536" lon="-0.25362">
        <ele>3.98</ele>
        <time>2016-08-08T08:58:54Z</time>
      </trkpt>
      <trkpt lat="49.26602" lon="-0.25344">
        <ele>3.5</ele>
        <time>2016-08-08T08:59:07Z</time>
      </trkpt>
      <trkpt lat="49.26692" lon="-0.25318">
        <ele>3.98</ele>
        <time>2016-08-08T08:59:25Z</time>
      </trkpt>
      <trkpt lat="49.2676" lon="-0.25301">
        <ele>3.98</ele>
        <time>2016-08-08T08:59:38Z</time>
      </trkpt>
      <trkpt lat="49.26833" lon="-0.25278">
        <ele>4.46</ele>
        <time>2016-08-08T08:59:52Z</time>
      </trkpt>
      <trkpt lat="49.26901" lon="-0.25261">
        <ele>5.42</ele>
        <time>2016-08-08T09:00:05Z</time>
      </trkpt>
      <trkpt lat="49.26906" lon="-0.25259">
        <ele>4.94</ele>
        <time>2016-08-08T09:00:06Z</time>
      </trkpt>
      <trkpt lat="49.26911" lon="-0.25258">
        <ele>5.42</ele>
        <time>2016-08-08T09:00:07Z</time>
      </trkpt>
      <trkpt lat="49.26972" lon="-0.25241">
        <ele>4.94</ele>
        <time>2016-08-08T09:00:19Z</time>
      </trkpt>
      <trkpt lat="49.26988" lon="-0.25237">
        <ele>4.46</ele>
        <time>2016-08-08T09:00:22Z</time>
      </trkpt>
      <trkpt lat="49.27028" lon="-0.25226">
        <ele>3.98</ele>
        <time>2016-08-08T09:00:30Z</time>
      </trkpt>
      <trkpt lat="49.27041" lon="-0.25221">
        <ele>3.98</ele>
        <time>2016-08-08T09:00:33Z</time>
      </trkpt>
      <trkpt lat="49.27045" lon="-0.25221">
        <ele>4.46</ele>
        <time>2016-08-08T09:00:34Z</time>
      </trkpt>
      <trkpt lat="49.27049" lon="-0.25221">
        <ele>4.46</ele>
        <time>2016-08-08T09:00:35Z</time>
      </trkpt>
      <trkpt lat="49.27052" lon="-0.2522">
        <ele>4.46</ele>
        <time>2016-08-08T09:00:36Z</time>
      </trkpt>
      <trkpt lat="49.27054" lon="-0.25219">
        <ele>4.46</ele>
        <time>2016-08-08T09:00:37Z</time>
      </trkpt>
      <trkpt lat="49.27057" lon="-0.25217">
        <ele>4.46</ele>
        <time>2016-08-08T09:00:38Z</time>
      </trkpt>
      <trkpt lat="49.2706" lon="-0.25217">
        <ele>3.98</ele>
        <time>2016-08-08T09:00:39Z</time>
      </trkpt>
      <trkpt lat="49.27063" lon="-0.25217">
        <ele>3.98</ele>
        <time>2016-08-08T09:00:40Z</time>
      </trkpt>
      <trkpt lat="49.27067" lon="-0.25218">
        <ele>3.98</ele>
        <time>2016-08-08T09:00:41Z</time>
      </trkpt>
      <trkpt lat="49.27075" lon="-0.2522">
        <ele>3.98</ele>
        <time>2016-08-08T09:00:43Z</time>
      </trkpt>
      <trkpt lat="49.27097" lon="-0.25231">
        <ele>4.94</ele>
        <time>2016-08-08T09:00:48Z</time>
      </trkpt>
      <trkpt lat="49.27102" lon="-0.25231">
        <ele>4.94</ele>
        <time>2016-08-08T09:00:49Z</time>
      </trkpt>
      <trkpt lat="49.27107" lon="-0.2523">
        <ele>4.94</ele>
        <time>2016-08-08T09:00:50Z</time>
      </trkpt>
      <trkpt lat="49.27163" lon="-0.25217">
        <ele>4.94</ele>
        <time>2016-08-08T09:01:02Z</time>
      </trkpt>
      <trkpt lat="49.27167" lon="-0.25218">
        <ele>4.94</ele>
        <time>2016-08-08T09:01:03Z</time>
      </trkpt>
      <trkpt lat="49.27177" lon="-0.25219">
        <ele>4.94</ele>
        <time>2016-08-08T09:01:05Z</time>
      </trkpt>
      <trkpt lat="49.27182" lon="-0.25219">
        <ele>4.94</ele>
        <time>2016-08-08T09:01:06Z</time>
      </trkpt>
      <trkpt lat="49.27187" lon="-0.25218">
        <ele>4.94</ele>
        <time>2016-08-08T09:01:07Z</time>
      </trkpt>
      <trkpt lat="49.2724" lon="-0.25202">
        <ele>4.46</ele>
        <time>2016-08-08T09:01:19Z</time>
      </trkpt>
      <trkpt lat="49.27249" lon="-0.25197">
        <ele>4.94</ele>
        <time>2016-08-08T09:01:21Z</time>
      </trkpt>
      <trkpt lat="49.27266" lon="-0.25183">
        <ele>4.46</ele>
        <time>2016-08-08T09:01:25Z</time>
      </trkpt>
      <trkpt lat="49.27337" lon="-0.25161">
        <ele>4.94</ele>
        <time>2016-08-08T09:01:40Z</time>
      </trkpt>
      <trkpt lat="49.27401" lon="-0.25144">
        <ele>5.42</ele>
        <time>2016-08-08T09:01:56Z</time>
      </trkpt>
      <trkpt lat="49.27442" lon="-0.25136">
        <ele>3.5</ele>
        <time>2016-08-08T09:02:07Z</time>
      </trkpt>
      <trkpt lat="49.2745" lon="-0.25134">
        <ele>3.02</ele>
        <time>2016-08-08T09:02:09Z</time>
      </trkpt>
      <trkpt lat="49.27454" lon="-0.25133">
        <ele>2.54</ele>
        <time>2016-08-08T09:02:10Z</time>
      </trkpt>
      <trkpt lat="49.27457" lon="-0.25132">
        <ele>2.54</ele>
        <time>2016-08-08T09:02:11Z</time>
      </trkpt>
      <trkpt lat="49.27461" lon="-0.2513">
        <ele>2.54</ele>
        <time>2016-08-08T09:02:12Z</time>
      </trkpt>
      <trkpt lat="49.27464" lon="-0.25127">
        <ele>2.54</ele>
        <time>2016-08-08T09:02:13Z</time>
      </trkpt>
      <trkpt lat="49.27496" lon="-0.25118">
        <ele>3.5</ele>
        <time>2016-08-08T09:02:21Z</time>
      </trkpt>
      <trkpt lat="49.27505" lon="-0.25116">
        <ele>3.5</ele>
        <time>2016-08-08T09:02:23Z</time>
      </trkpt>
      <trkpt lat="49.27531" lon="-0.25107">
        <ele>3.98</ele>
        <time>2016-08-08T09:02:29Z</time>
      </trkpt>
      <trkpt lat="49.27535" lon="-0.25106">
        <ele>3.98</ele>
        <time>2016-08-08T09:02:30Z</time>
      </trkpt>
      <trkpt lat="49.2761" lon="-0.25085">
        <ele>5.42</ele>
        <time>2016-08-08T09:02:47Z</time>
      </trkpt>
      <trkpt lat="49.27687" lon="-0.25065">
        <ele>4.94</ele>
        <time>2016-08-08T09:03:05Z</time>
      </trkpt>
      <trkpt lat="49.27759" lon="-0.25045">
        <ele>5.42</ele>
        <time>2016-08-08T09:03:22Z</time>
      </trkpt>
      <trkpt lat="49.27797" lon="-0.25035">
        <ele>4.94</ele>
        <time>2016-08-08T09:03:31Z</time>
      </trkpt>
      <trkpt lat="49.27801" lon="-0.25033">
        <ele>4.94</ele>
        <time>2016-08-08T09:03:32Z</time>
      </trkpt>
      <trkpt lat="49.27824" lon="-0.25026">
        <ele>4.46</ele>
        <time>2016-08-08T09:03:39Z</time>
      </trkpt>
      <trkpt lat="49.27825" lon="-0.25022">
        <ele>4.46</ele>
        <time>2016-08-08T09:03:40Z</time>
      </trkpt>
      <trkpt lat="49.27826" lon="-0.25018">
        <ele>4.46</ele>
        <time>2016-08-08T09:03:41Z</time>
      </trkpt>
      <trkpt lat="49.27826" lon="-0.25013">
        <ele>4.46</ele>
        <time>2016-08-08T09:03:42Z</time>
      </trkpt>
      <trkpt lat="49.27826" lon="-0.2501">
        <ele>4.94</ele>
        <time>2016-08-08T09:03:43Z</time>
      </trkpt>
      <trkpt lat="49.27827" lon="-0.25008">
        <ele>4.94</ele>
        <time>2016-08-08T09:03:44Z</time>
      </trkpt>
      <trkpt lat="49.27828" lon="-0.25007">
        <ele>4.94</ele>
        <time>2016-08-08T09:03:45Z</time>
      </trkpt>
      <trkpt lat="49.2783" lon="-0.25007">
        <ele>5.42</ele>
        <time>2016-08-08T09:03:46Z</time>
      </trkpt>
      <trkpt lat="49.27832" lon="-0.25007">
        <ele>4.94</ele>
        <time>2016-08-08T09:03:57Z</time>
      </trkpt>
      <trkpt lat="49.27829" lon="-0.25004">
        <ele>4.46</ele>
        <time>2016-08-08T09:04:03Z</time>
      </trkpt>
      <trkpt lat="49.27816" lon="-0.24966">
        <ele>4.46</ele>
        <time>2016-08-08T09:04:12Z</time>
      </trkpt>
      <trkpt lat="49.27816" lon="-0.2496">
        <ele>4.46</ele>
        <time>2016-08-08T09:04:13Z</time>
      </trkpt>
      <trkpt lat="49.27817" lon="-0.24955">
        <ele>4.46</ele>
        <time>2016-08-08T09:04:14Z</time>
      </trkpt>
      <trkpt lat="49.27841" lon="-0.24922">
        <ele>4.46</ele>
        <time>2016-08-08T09:04:24Z</time>
      </trkpt>
      <trkpt lat="49.27867" lon="-0.24915">
        <ele>4.94</ele>
        <time>2016-08-08T09:04:34Z</time>
      </trkpt>
      <trkpt lat="49.27911" lon="-0.24896">
        <ele>6.39</ele>
        <time>2016-08-08T09:04:47Z</time>
      </trkpt>
      <trkpt lat="49.27912" lon="-0.24891">
        <ele>6.87</ele>
        <time>2016-08-08T09:04:48Z</time>
      </trkpt>
      <trkpt lat="49.27912" lon="-0.24887">
        <ele>6.87</ele>
        <time>2016-08-08T09:04:49Z</time>
      </trkpt>
      <trkpt lat="49.27901" lon="-0.24811">
        <ele>7.83</ele>
        <time>2016-08-08T09:05:03Z</time>
      </trkpt>
      <trkpt lat="49.27897" lon="-0.24801">
        <ele>7.83</ele>
        <time>2016-08-08T09:05:05Z</time>
      </trkpt>
      <trkpt lat="49.27895" lon="-0.24798">
        <ele>7.83</ele>
        <time>2016-08-08T09:05:06Z</time>
      </trkpt>
      <trkpt lat="49.27893" lon="-0.24794">
        <ele>7.83</ele>
        <time>2016-08-08T09:05:07Z</time>
      </trkpt>
      <trkpt lat="49.27891" lon="-0.2479">
        <ele>7.35</ele>
        <time>2016-08-08T09:05:08Z</time>
      </trkpt>
      <trkpt lat="49.27891" lon="-0.24786">
        <ele>7.83</ele>
        <time>2016-08-08T09:05:09Z</time>
      </trkpt>
      <trkpt lat="49.27893" lon="-0.24783">
        <ele>7.83</ele>
        <time>2016-08-08T09:05:10Z</time>
      </trkpt>
      <trkpt lat="49.27895" lon="-0.24782">
        <ele>7.83</ele>
        <time>2016-08-08T09:05:11Z</time>
      </trkpt>
      <trkpt lat="49.27898" lon="-0.24783">
        <ele>7.83</ele>
        <time>2016-08-08T09:05:12Z</time>
      </trkpt>
      <trkpt lat="49.27899" lon="-0.24785">
        <ele>7.83</ele>
        <time>2016-08-08T09:05:13Z</time>
      </trkpt>
      <trkpt lat="49.279" lon="-0.24788">
        <ele>7.35</ele>
        <time>2016-08-08T09:05:14Z</time>
      </trkpt>
      <trkpt lat="49.27901" lon="-0.2479">
        <ele>7.35</ele>
        <time>2016-08-08T09:05:15Z</time>
      </trkpt>
      <trkpt lat="49.27902" lon="-0.24792">
        <ele>7.35</ele>
        <time>2016-08-08T09:05:16Z</time>
      </trkpt>
      <trkpt lat="49.27903" lon="-0.24794">
        <ele>6.87</ele>
        <time>2016-08-08T09:05:17Z</time>
      </trkpt>
      <trkpt lat="49.27904" lon="-0.24795">
        <ele>6.87</ele>
        <time>2016-08-08T09:05:28Z</time>
      </trkpt>
      <trkpt lat="49.27905" lon="-0.24796">
        <ele>8.31</ele>
        <time>2016-08-08T09:05:50Z</time>
      </trkpt>
      <trkpt lat="49.27906" lon="-0.24819">
        <ele>8.31</ele>
        <time>2016-08-08T09:06:09Z</time>
      </trkpt>
      <trkpt lat="49.27913" lon="-0.24891">
        <ele>8.79</ele>
        <time>2016-08-08T09:06:20Z</time>
      </trkpt>
      <trkpt lat="49.27911" lon="-0.24898">
        <ele>8.79</ele>
        <time>2016-08-08T09:06:21Z</time>
      </trkpt>
      <trkpt lat="49.27907" lon="-0.24903">
        <ele>8.31</ele>
        <time>2016-08-08T09:06:22Z</time>
      </trkpt>
      <trkpt lat="49.27902" lon="-0.24908">
        <ele>8.31</ele>
        <time>2016-08-08T09:06:23Z</time>
      </trkpt>
      <trkpt lat="49.27896" lon="-0.2491">
        <ele>7.83</ele>
        <time>2016-08-08T09:06:24Z</time>
      </trkpt>
      <trkpt lat="49.2789" lon="-0.24912">
        <ele>7.83</ele>
        <time>2016-08-08T09:06:25Z</time>
      </trkpt>
      <trkpt lat="49.27878" lon="-0.24917">
        <ele>7.35</ele>
        <time>2016-08-08T09:06:27Z</time>
      </trkpt>
      <trkpt lat="49.27873" lon="-0.24919">
        <ele>6.87</ele>
        <time>2016-08-08T09:06:28Z</time>
      </trkpt>
      <trkpt lat="49.27838" lon="-0.24927">
        <ele>7.35</ele>
        <time>2016-08-08T09:06:35Z</time>
      </trkpt>
      <trkpt lat="49.27819" lon="-0.24938">
        <ele>7.35</ele>
        <time>2016-08-08T09:06:40Z</time>
      </trkpt>
      <trkpt lat="49.27818" lon="-0.24942">
        <ele>7.35</ele>
        <time>2016-08-08T09:06:41Z</time>
      </trkpt>
      <trkpt lat="49.27816" lon="-0.24971">
        <ele>6.87</ele>
        <time>2016-08-08T09:06:49Z</time>
      </trkpt>
      <trkpt lat="49.27817" lon="-0.24974">
        <ele>6.87</ele>
        <time>2016-08-08T09:06:50Z</time>
      </trkpt>
      <trkpt lat="49.27835" lon="-0.2501">
        <ele>6.39</ele>
        <time>2016-08-08T09:07:00Z</time>
      </trkpt>
      <trkpt lat="49.27839" lon="-0.25011">
        <ele>6.39</ele>
        <time>2016-08-08T09:07:01Z</time>
      </trkpt>
      <trkpt lat="49.27843" lon="-0.25012">
        <ele>6.39</ele>
        <time>2016-08-08T09:07:02Z</time>
      </trkpt>
      <trkpt lat="49.27847" lon="-0.25011">
        <ele>6.39</ele>
        <time>2016-08-08T09:07:03Z</time>
      </trkpt>
      <trkpt lat="49.27851" lon="-0.2501">
        <ele>6.39</ele>
        <time>2016-08-08T09:07:04Z</time>
      </trkpt>
      <trkpt lat="49.27907" lon="-0.24993">
        <ele>7.35</ele>
        <time>2016-08-08T09:07:19Z</time>
      </trkpt>
      <trkpt lat="49.2797" lon="-0.24976">
        <ele>6.39</ele>
        <time>2016-08-08T09:07:35Z</time>
      </trkpt>
      <trkpt lat="49.28022" lon="-0.24965">
        <ele>6.87</ele>
        <time>2016-08-08T09:07:50Z</time>
      </trkpt>
      <trkpt lat="49.28031" lon="-0.2497">
        <ele>6.39</ele>
        <time>2016-08-08T09:07:55Z</time>
      </trkpt>
      <trkpt lat="49.28033" lon="-0.2497">
        <ele>6.39</ele>
        <time>2016-08-08T09:07:56Z</time>
      </trkpt>
      <trkpt lat="49.28036" lon="-0.24969">
        <ele>6.39</ele>
        <time>2016-08-08T09:07:57Z</time>
      </trkpt>
      <trkpt lat="49.28038" lon="-0.24968">
        <ele>6.39</ele>
        <time>2016-08-08T09:07:58Z</time>
      </trkpt>
      <trkpt lat="49.28041" lon="-0.24967">
        <ele>6.87</ele>
        <time>2016-08-08T09:07:59Z</time>
      </trkpt>
      <trkpt lat="49.28043" lon="-0.24965">
        <ele>6.87</ele>
        <time>2016-08-08T09:08:00Z</time>
      </trkpt>
      <trkpt lat="49.28045" lon="-0.24965">
        <ele>7.35</ele>
        <time>2016-08-08T09:08:01Z</time>
      </trkpt>
      <trkpt lat="49.28048" lon="-0.24965">
        <ele>7.35</ele>
        <time>2016-08-08T09:08:02Z</time>
      </trkpt>
      <trkpt lat="49.2805" lon="-0.24965">
        <ele>7.35</ele>
        <time>2016-08-08T09:08:03Z</time>
      </trkpt>
      <trkpt lat="49.28052" lon="-0.24966">
        <ele>6.87</ele>
        <time>2016-08-08T09:08:04Z</time>
      </trkpt>
      <trkpt lat="49.28058" lon="-0.24967">
        <ele>6.87</ele>
        <time>2016-08-08T09:08:06Z</time>
      </trkpt>
      <trkpt lat="49.28061" lon="-0.24966">
        <ele>6.87</ele>
        <time>2016-08-08T09:08:07Z</time>
      </trkpt>
      <trkpt lat="49.28063" lon="-0.24965">
        <ele>6.87</ele>
        <time>2016-08-08T09:08:08Z</time>
      </trkpt>
      <trkpt lat="49.28066" lon="-0.24963">
        <ele>6.87</ele>
        <time>2016-08-08T09:08:09Z</time>
      </trkpt>
      <trkpt lat="49.28069" lon="-0.24963">
        <ele>6.87</ele>
        <time>2016-08-08T09:08:10Z</time>
      </trkpt>
      <trkpt lat="49.28073" lon="-0.24963">
        <ele>6.87</ele>
        <time>2016-08-08T09:08:11Z</time>
      </trkpt>
      <trkpt lat="49.28103" lon="-0.24968">
        <ele>7.83</ele>
        <time>2016-08-08T09:08:20Z</time>
      </trkpt>
      <trkpt lat="49.28119" lon="-0.24973">
        <ele>7.83</ele>
        <time>2016-08-08T09:08:24Z</time>
      </trkpt>
      <trkpt lat="49.28123" lon="-0.24973">
        <ele>7.83</ele>
        <time>2016-08-08T09:08:25Z</time>
      </trkpt>
      <trkpt lat="49.28161" lon="-0.24959">
        <ele>7.83</ele>
        <time>2016-08-08T09:08:34Z</time>
      </trkpt>
      <trkpt lat="49.28172" lon="-0.24954">
        <ele>7.83</ele>
        <time>2016-08-08T09:08:37Z</time>
      </trkpt>
      <trkpt lat="49.28176" lon="-0.24952">
        <ele>7.83</ele>
        <time>2016-08-08T09:08:38Z</time>
      </trkpt>
      <trkpt lat="49.2818" lon="-0.2495">
        <ele>7.83</ele>
        <time>2016-08-08T09:08:39Z</time>
      </trkpt>
      <trkpt lat="49.28229" lon="-0.24931">
        <ele>7.35</ele>
        <time>2016-08-08T09:08:55Z</time>
      </trkpt>
      <trkpt lat="49.2823" lon="-0.24932">
        <ele>6.87</ele>
        <time>2016-08-08T09:08:56Z</time>
      </trkpt>
      <trkpt lat="49.28231" lon="-0.24934">
        <ele>6.87</ele>
        <time>2016-08-08T09:08:57Z</time>
      </trkpt>
      <trkpt lat="49.28232" lon="-0.24937">
        <ele>6.87</ele>
        <time>2016-08-08T09:08:58Z</time>
      </trkpt>
      <trkpt lat="49.28233" lon="-0.24941">
        <ele>6.87</ele>
        <time>2016-08-08T09:08:59Z</time>
      </trkpt>
      <trkpt lat="49.28234" lon="-0.24945">
        <ele>6.87</ele>
        <time>2016-08-08T09:09:00Z</time>
      </trkpt>
      <trkpt lat="49.28235" lon="-0.24948">
        <ele>6.39</ele>
        <time>2016-08-08T09:09:01Z</time>
      </trkpt>
      <trkpt lat="49.28237" lon="-0.24949">
        <ele>6.39</ele>
        <time>2016-08-08T09:09:02Z</time>
      </trkpt>
      <trkpt lat="49.2824" lon="-0.24948">
        <ele>6.39</ele>
        <time>2016-08-08T09:09:03Z</time>
      </trkpt>
      <trkpt lat="49.28243" lon="-0.24949">
        <ele>6.87</ele>
        <time>2016-08-08T09:09:04Z</time>
      </trkpt>
      <trkpt lat="49.28246" lon="-0.24951">
        <ele>6.87</ele>
        <time>2016-08-08T09:09:05Z</time>
      </trkpt>
      <trkpt lat="49.28249" lon="-0.24954">
        <ele>7.35</ele>
        <time>2016-08-08T09:09:06Z</time>
      </trkpt>
      <trkpt lat="49.28251" lon="-0.24958">
        <ele>7.83</ele>
        <time>2016-08-08T09:09:07Z</time>
      </trkpt>
      <trkpt lat="49.28253" lon="-0.24962">
        <ele>7.83</ele>
        <time>2016-08-08T09:09:08Z</time>
      </trkpt>
      <trkpt lat="49.28255" lon="-0.24966">
        <ele>8.31</ele>
        <time>2016-08-08T09:09:09Z</time>
      </trkpt>
      <trkpt lat="49.28256" lon="-0.24971">
        <ele>7.83</ele>
        <time>2016-08-08T09:09:10Z</time>
      </trkpt>
      <trkpt lat="49.28275" lon="-0.25026">
        <ele>8.79</ele>
        <time>2016-08-08T09:09:24Z</time>
      </trkpt>
      <trkpt lat="49.28274" lon="-0.2503">
        <ele>8.31</ele>
        <time>2016-08-08T09:09:25Z</time>
      </trkpt>
      <trkpt lat="49.28272" lon="-0.25044">
        <ele>8.31</ele>
        <time>2016-08-08T09:09:29Z</time>
      </trkpt>
      <trkpt lat="49.28273" lon="-0.25047">
        <ele>8.31</ele>
        <time>2016-08-08T09:09:30Z</time>
      </trkpt>
      <trkpt lat="49.28276" lon="-0.25049">
        <ele>8.31</ele>
        <time>2016-08-08T09:09:31Z</time>
      </trkpt>
      <trkpt lat="49.28279" lon="-0.25052">
        <ele>8.31</ele>
        <time>2016-08-08T09:09:32Z</time>
      </trkpt>
      <trkpt lat="49.28282" lon="-0.25054">
        <ele>8.31</ele>
        <time>2016-08-08T09:09:33Z</time>
      </trkpt>
      <trkpt lat="49.28285" lon="-0.25055">
        <ele>8.31</ele>
        <time>2016-08-08T09:09:34Z</time>
      </trkpt>
      <trkpt lat="49.28326" lon="-0.25051">
        <ele>9.27</ele>
        <time>2016-08-08T09:09:46Z</time>
      </trkpt>
      <trkpt lat="49.28373" lon="-0.2504">
        <ele>7.83</ele>
        <time>2016-08-08T09:10:00Z</time>
      </trkpt>
      <trkpt lat="49.28407" lon="-0.25028">
        <ele>8.79</ele>
        <time>2016-08-08T09:10:13Z</time>
      </trkpt>
      <trkpt lat="49.28423" lon="-0.25024">
        <ele>8.31</ele>
        <time>2016-08-08T09:10:26Z</time>
      </trkpt>
      <trkpt lat="49.28459" lon="-0.25012">
        <ele>4.94</ele>
        <time>2016-08-08T09:10:36Z</time>
      </trkpt>
      <trkpt lat="49.285" lon="-0.25002">
        <ele>3.98</ele>
        <time>2016-08-08T09:10:47Z</time>
      </trkpt>
      <trkpt lat="49.28554" lon="-0.24989">
        <ele>6.39</ele>
        <time>2016-08-08T09:11:00Z</time>
      </trkpt>
      <trkpt lat="49.28602" lon="-0.24968">
        <ele>5.91</ele>
        <time>2016-08-08T09:11:14Z</time>
      </trkpt>
      <trkpt lat="49.28645" lon="-0.24949">
        <ele>7.35</ele>
        <time>2016-08-08T09:11:26Z</time>
      </trkpt>
      <trkpt lat="49.2865" lon="-0.24947">
        <ele>7.35</ele>
        <time>2016-08-08T09:11:27Z</time>
      </trkpt>
      <trkpt lat="49.28654" lon="-0.24946">
        <ele>7.35</ele>
        <time>2016-08-08T09:11:28Z</time>
      </trkpt>
      <trkpt lat="49.28694" lon="-0.24936">
        <ele>8.31</ele>
        <time>2016-08-08T09:11:40Z</time>
      </trkpt>
      <trkpt lat="49.28733" lon="-0.24983">
        <ele>7.35</ele>
        <time>2016-08-08T09:11:53Z</time>
      </trkpt>
      <trkpt lat="49.2876" lon="-0.25034">
        <ele>5.91</ele>
        <time>2016-08-08T09:12:06Z</time>
      </trkpt>
      <trkpt lat="49.28763" lon="-0.25035">
        <ele>5.91</ele>
        <time>2016-08-08T09:12:07Z</time>
      </trkpt>
      <trkpt lat="49.28766" lon="-0.25035">
        <ele>6.39</ele>
        <time>2016-08-08T09:12:08Z</time>
      </trkpt>
      <trkpt lat="49.28789" lon="-0.25041">
        <ele>7.83</ele>
        <time>2016-08-08T09:12:15Z</time>
      </trkpt>
      <trkpt lat="49.28806" lon="-0.25074">
        <ele>9.27</ele>
        <time>2016-08-08T09:12:22Z</time>
      </trkpt>
      <trkpt lat="49.28809" lon="-0.25079">
        <ele>9.27</ele>
        <time>2016-08-08T09:12:23Z</time>
      </trkpt>
      <trkpt lat="49.28811" lon="-0.25084">
        <ele>9.75</ele>
        <time>2016-08-08T09:12:24Z</time>
      </trkpt>
      <trkpt lat="49.28817" lon="-0.25102">
        <ele>10.23</ele>
        <time>2016-08-08T09:12:27Z</time>
      </trkpt>
      <trkpt lat="49.2882" lon="-0.25107">
        <ele>10.71</ele>
        <time>2016-08-08T09:12:28Z</time>
      </trkpt>
      <trkpt lat="49.28823" lon="-0.25113">
        <ele>10.71</ele>
        <time>2016-08-08T09:12:29Z</time>
      </trkpt>
      <trkpt lat="49.28852" lon="-0.25193">
        <ele>10.23</ele>
        <time>2016-08-08T09:12:43Z</time>
      </trkpt>
      <trkpt lat="49.28869" lon="-0.25268">
        <ele>7.35</ele>
        <time>2016-08-08T09:12:58Z</time>
      </trkpt>
      <trkpt lat="49.28876" lon="-0.25322">
        <ele>8.31</ele>
        <time>2016-08-08T09:13:10Z</time>
      </trkpt>
      <trkpt lat="49.28878" lon="-0.25338">
        <ele>7.83</ele>
        <time>2016-08-08T09:13:15Z</time>
      </trkpt>
      <trkpt lat="49.28876" lon="-0.25381">
        <ele>7.35</ele>
        <time>2016-08-08T09:13:26Z</time>
      </trkpt>
      <trkpt lat="49.28882" lon="-0.25428">
        <ele>7.35</ele>
        <time>2016-08-08T09:13:39Z</time>
      </trkpt>
      <trkpt lat="49.28888" lon="-0.25445">
        <ele>7.83</ele>
        <time>2016-08-08T09:13:43Z</time>
      </trkpt>
      <trkpt lat="49.28889" lon="-0.25449">
        <ele>7.83</ele>
        <time>2016-08-08T09:13:44Z</time>
      </trkpt>
      <trkpt lat="49.28889" lon="-0.25453">
        <ele>8.31</ele>
        <time>2016-08-08T09:13:45Z</time>
      </trkpt>
      <trkpt lat="49.28889" lon="-0.25464">
        <ele>8.31</ele>
        <time>2016-08-08T09:13:48Z</time>
      </trkpt>
      <trkpt lat="49.28877" lon="-0.25515">
        <ele>7.83</ele>
        <time>2016-08-08T09:14:00Z</time>
      </trkpt>
      <trkpt lat="49.2888" lon="-0.2556">
        <ele>8.31</ele>
        <time>2016-08-08T09:14:10Z</time>
      </trkpt>
      <trkpt lat="49.28894" lon="-0.25628">
        <ele>6.87</ele>
        <time>2016-08-08T09:14:24Z</time>
      </trkpt>
      <trkpt lat="49.28909" lon="-0.25706">
        <ele>6.39</ele>
        <time>2016-08-08T09:14:39Z</time>
      </trkpt>
      <trkpt lat="49.28924" lon="-0.25753">
        <ele>6.39</ele>
        <time>2016-08-08T09:14:48Z</time>
      </trkpt>
      <trkpt lat="49.28925" lon="-0.2576">
        <ele>6.39</ele>
        <time>2016-08-08T09:14:49Z</time>
      </trkpt>
      <trkpt lat="49.28925" lon="-0.25766">
        <ele>6.39</ele>
        <time>2016-08-08T09:14:50Z</time>
      </trkpt>
      <trkpt lat="49.28927" lon="-0.25773">
        <ele>6.39</ele>
        <time>2016-08-08T09:14:51Z</time>
      </trkpt>
      <trkpt lat="49.28928" lon="-0.25779">
        <ele>6.87</ele>
        <time>2016-08-08T09:14:52Z</time>
      </trkpt>
      <trkpt lat="49.28936" lon="-0.25819">
        <ele>6.39</ele>
        <time>2016-08-08T09:15:01Z</time>
      </trkpt>
      <trkpt lat="49.28934" lon="-0.25823">
        <ele>6.39</ele>
        <time>2016-08-08T09:15:02Z</time>
      </trkpt>
      <trkpt lat="49.28932" lon="-0.25825">
        <ele>6.39</ele>
        <time>2016-08-08T09:15:03Z</time>
      </trkpt>
      <trkpt lat="49.28931" lon="-0.25824">
        <ele>6.87</ele>
        <time>2016-08-08T09:15:04Z</time>
      </trkpt>
      <trkpt lat="49.28931" lon="-0.25821">
        <ele>6.39</ele>
        <time>2016-08-08T09:15:06Z</time>
      </trkpt>
      <trkpt lat="49.28932" lon="-0.25819">
        <ele>6.39</ele>
        <time>2016-08-08T09:15:07Z</time>
      </trkpt>
      <trkpt lat="49.28933" lon="-0.25817">
        <ele>6.39</ele>
        <time>2016-08-08T09:15:08Z</time>
      </trkpt>
      <trkpt lat="49.28933" lon="-0.25814">
        <ele>6.39</ele>
        <time>2016-08-08T09:15:09Z</time>
      </trkpt>
      <trkpt lat="49.28932" lon="-0.2581">
        <ele>6.39</ele>
        <time>2016-08-08T09:15:10Z</time>
      </trkpt>
      <trkpt lat="49.28922" lon="-0.25775">
        <ele>6.87</ele>
        <time>2016-08-08T09:15:18Z</time>
      </trkpt>
      <trkpt lat="49.28919" lon="-0.25773">
        <ele>6.87</ele>
        <time>2016-08-08T09:15:19Z</time>
      </trkpt>
      <trkpt lat="49.28917" lon="-0.25772">
        <ele>6.87</ele>
        <time>2016-08-08T09:15:20Z</time>
      </trkpt>
      <trkpt lat="49.28914" lon="-0.25772">
        <ele>6.87</ele>
        <time>2016-08-08T09:15:21Z</time>
      </trkpt>
      <trkpt lat="49.28912" lon="-0.25773">
        <ele>6.87</ele>
        <time>2016-08-08T09:15:22Z</time>
      </trkpt>
      <trkpt lat="49.28911" lon="-0.25775">
        <ele>7.35</ele>
        <time>2016-08-08T09:15:32Z</time>
      </trkpt>
      <trkpt lat="49.28912" lon="-0.25775">
        <ele>8.79</ele>
        <time>2016-08-08T09:15:58Z</time>
      </trkpt>
      <trkpt lat="49.28911" lon="-0.25776">
        <ele>9.27</ele>
        <time>2016-08-08T09:16:27Z</time>
      </trkpt>
      <trkpt lat="49.28911" lon="-0.25775">
        <ele>8.79</ele>
        <time>2016-08-08T09:16:49Z</time>
      </trkpt>
      <trkpt lat="49.28911" lon="-0.25775">
        <ele>8.31</ele>
        <time>2016-08-08T09:17:20Z</time>
      </trkpt>
      <trkpt lat="49.28911" lon="-0.25775">
        <ele>7.83</ele>
        <time>2016-08-08T09:17:46Z</time>
      </trkpt>
      <trkpt lat="49.28911" lon="-0.25776">
        <ele>7.35</ele>
        <time>2016-08-08T09:18:22Z</time>
      </trkpt>
      <trkpt lat="49.28911" lon="-0.25776">
        <ele>6.87</ele>
        <time>2016-08-08T09:18:54Z</time>
      </trkpt>
      <trkpt lat="49.28911" lon="-0.25776">
        <ele>6.39</ele>
        <time>2016-08-08T09:19:24Z</time>
      </trkpt>
      <trkpt lat="49.28912" lon="-0.25774">
        <ele>6.39</ele>
        <time>2016-08-08T09:19:37Z</time>
      </trkpt>
      <trkpt lat="49.28912" lon="-0.25774">
        <ele>6.39</ele>
        <time>2016-08-08T09:19:52Z</time>
      </trkpt>
      <trkpt lat="49.28912" lon="-0.25774">
        <ele>6.39</ele>
        <time>2016-08-08T09:19:55Z</time>
      </trkpt>
      <trkpt lat="49.28914" lon="-0.25775">
        <ele>6.39</ele>
        <time>2016-08-08T09:19:56Z</time>
      </trkpt>
      <trkpt lat="49.28916" lon="-0.25775">
        <ele>6.39</ele>
        <time>2016-08-08T09:19:57Z</time>
      </trkpt>
      <trkpt lat="49.28918" lon="-0.25776">
        <ele>6.39</ele>
        <time>2016-08-08T09:19:58Z</time>
      </trkpt>
      <trkpt lat="49.2892" lon="-0.25778">
        <ele>6.39</ele>
        <time>2016-08-08T09:19:59Z</time>
      </trkpt>
      <trkpt lat="49.28921" lon="-0.25782">
        <ele>6.39</ele>
        <time>2016-08-08T09:20:00Z</time>
      </trkpt>
      <trkpt lat="49.28922" lon="-0.25787">
        <ele>6.39</ele>
        <time>2016-08-08T09:20:01Z</time>
      </trkpt>
      <trkpt lat="49.28944" lon="-0.25846">
        <ele>5.91</ele>
        <time>2016-08-08T09:20:16Z</time>
      </trkpt>
      <trkpt lat="49.28971" lon="-0.25907">
        <ele>5.91</ele>
        <time>2016-08-08T09:20:33Z</time>
      </trkpt>
      <trkpt lat="49.28979" lon="-0.25954">
        <ele>5.42</ele>
        <time>2016-08-08T09:20:44Z</time>
      </trkpt>
      <trkpt lat="49.28993" lon="-0.2602">
        <ele>5.91</ele>
        <time>2016-08-08T09:20:57Z</time>
      </trkpt>
      <trkpt lat="49.2901" lon="-0.26061">
        <ele>5.42</ele>
        <time>2016-08-08T09:21:07Z</time>
      </trkpt>
      <trkpt lat="49.29007" lon="-0.26117">
        <ele>4.46</ele>
        <time>2016-08-08T09:21:18Z</time>
      </trkpt>
      <trkpt lat="49.29016" lon="-0.26194">
        <ele>4.46</ele>
        <time>2016-08-08T09:21:34Z</time>
      </trkpt>
      <trkpt lat="49.29008" lon="-0.26224">
        <ele>3.5</ele>
        <time>2016-08-08T09:21:44Z</time>
      </trkpt>
      <trkpt lat="49.29007" lon="-0.26226">
        <ele>3.5</ele>
        <time>2016-08-08T09:21:45Z</time>
      </trkpt>
      <trkpt lat="49.29008" lon="-0.2623">
        <ele>3.5</ele>
        <time>2016-08-08T09:21:46Z</time>
      </trkpt>
      <trkpt lat="49.29009" lon="-0.26234">
        <ele>3.5</ele>
        <time>2016-08-08T09:21:47Z</time>
      </trkpt>
      <trkpt lat="49.29013" lon="-0.26245">
        <ele>3.98</ele>
        <time>2016-08-08T09:21:49Z</time>
      </trkpt>
      <trkpt lat="49.29014" lon="-0.26252">
        <ele>3.98</ele>
        <time>2016-08-08T09:21:50Z</time>
      </trkpt>
      <trkpt lat="49.29015" lon="-0.26258">
        <ele>4.46</ele>
        <time>2016-08-08T09:21:51Z</time>
      </trkpt>
      <trkpt lat="49.29027" lon="-0.2632">
        <ele>5.42</ele>
        <time>2016-08-08T09:22:03Z</time>
      </trkpt>
      <trkpt lat="49.29045" lon="-0.26408">
        <ele>5.91</ele>
        <time>2016-08-08T09:22:20Z</time>
      </trkpt>
      <trkpt lat="49.29059" lon="-0.26482">
        <ele>5.42</ele>
        <time>2016-08-08T09:22:33Z</time>
      </trkpt>
      <trkpt lat="49.29075" lon="-0.26572">
        <ele>5.42</ele>
        <time>2016-08-08T09:22:48Z</time>
      </trkpt>
      <trkpt lat="49.29082" lon="-0.26619">
        <ele>5.42</ele>
        <time>2016-08-08T09:22:58Z</time>
      </trkpt>
      <trkpt lat="49.2908" lon="-0.26622">
        <ele>5.91</ele>
        <time>2016-08-08T09:22:59Z</time>
      </trkpt>
      <trkpt lat="49.29078" lon="-0.26625">
        <ele>5.42</ele>
        <time>2016-08-08T09:23:00Z</time>
      </trkpt>
      <trkpt lat="49.29076" lon="-0.26626">
        <ele>5.42</ele>
        <time>2016-08-08T09:23:01Z</time>
      </trkpt>
      <trkpt lat="49.29072" lon="-0.26628">
        <ele>5.42</ele>
        <time>2016-08-08T09:23:02Z</time>
      </trkpt>
      <trkpt lat="49.29051" lon="-0.26635">
        <ele>4.94</ele>
        <time>2016-08-08T09:23:07Z</time>
      </trkpt>
      <trkpt lat="49.29047" lon="-0.26637">
        <ele>4.94</ele>
        <time>2016-08-08T09:23:08Z</time>
      </trkpt>
      <trkpt lat="49.29043" lon="-0.26639">
        <ele>4.94</ele>
        <time>2016-08-08T09:23:09Z</time>
      </trkpt>
      <trkpt lat="49.29012" lon="-0.26648">
        <ele>6.39</ele>
        <time>2016-08-08T09:23:20Z</time>
      </trkpt>
      <trkpt lat="49.29" lon="-0.26651">
        <ele>6.39</ele>
        <time>2016-08-08T09:23:23Z</time>
      </trkpt>
      <trkpt lat="49.28969" lon="-0.26666">
        <ele>5.42</ele>
        <time>2016-08-08T09:23:30Z</time>
      </trkpt>
      <trkpt lat="49.28888" lon="-0.26698">
        <ele>4.94</ele>
        <time>2016-08-08T09:23:45Z</time>
      </trkpt>
      <trkpt lat="49.28805" lon="-0.26734">
        <ele>4.94</ele>
        <time>2016-08-08T09:24:01Z</time>
      </trkpt>
      <trkpt lat="49.28721" lon="-0.26765">
        <ele>2.54</ele>
        <time>2016-08-08T09:24:16Z</time>
      </trkpt>
      <trkpt lat="49.28716" lon="-0.26768">
        <ele>2.54</ele>
        <time>2016-08-08T09:24:17Z</time>
      </trkpt>
      <trkpt lat="49.28711" lon="-0.26771">
        <ele>2.54</ele>
        <time>2016-08-08T09:24:18Z</time>
      </trkpt>
      <trkpt lat="49.28678" lon="-0.26785">
        <ele>2.54</ele>
        <time>2016-08-08T09:24:28Z</time>
      </trkpt>
      <trkpt lat="49.2866" lon="-0.26779">
        <ele>3.02</ele>
        <time>2016-08-08T09:24:34Z</time>
      </trkpt>
      <trkpt lat="49.28658" lon="-0.26779">
        <ele>3.02</ele>
        <time>2016-08-08T09:24:35Z</time>
      </trkpt>
      <trkpt lat="49.28645" lon="-0.2679">
        <ele>2.06</ele>
        <time>2016-08-08T09:24:40Z</time>
      </trkpt>
      <trkpt lat="49.28643" lon="-0.26796">
        <ele>2.06</ele>
        <time>2016-08-08T09:24:41Z</time>
      </trkpt>
      <trkpt lat="49.2864" lon="-0.26802">
        <ele>2.06</ele>
        <time>2016-08-08T09:24:42Z</time>
      </trkpt>
      <trkpt lat="49.28636" lon="-0.26806">
        <ele>2.06</ele>
        <time>2016-08-08T09:24:43Z</time>
      </trkpt>
      <trkpt lat="49.28632" lon="-0.2681">
        <ele>2.06</ele>
        <time>2016-08-08T09:24:44Z</time>
      </trkpt>
      <trkpt lat="49.28628" lon="-0.26814">
        <ele>2.06</ele>
        <time>2016-08-08T09:24:45Z</time>
      </trkpt>
      <trkpt lat="49.2857" lon="-0.26863">
        <ele>2.06</ele>
        <time>2016-08-08T09:24:59Z</time>
      </trkpt>
      <trkpt lat="49.2857" lon="-0.26867">
        <ele>2.06</ele>
        <time>2016-08-08T09:25:00Z</time>
      </trkpt>
      <trkpt lat="49.28571" lon="-0.2687">
        <ele>2.06</ele>
        <time>2016-08-08T09:25:01Z</time>
      </trkpt>
      <trkpt lat="49.28572" lon="-0.26875">
        <ele>2.06</ele>
        <time>2016-08-08T09:25:02Z</time>
      </trkpt>
      <trkpt lat="49.28572" lon="-0.26879">
        <ele>1.58</ele>
        <time>2016-08-08T09:25:03Z</time>
      </trkpt>
      <trkpt lat="49.2857" lon="-0.26883">
        <ele>1.1</ele>
        <time>2016-08-08T09:25:04Z</time>
      </trkpt>
      <trkpt lat="49.28568" lon="-0.26885">
        <ele>0.62</ele>
        <time>2016-08-08T09:25:05Z</time>
      </trkpt>
      <trkpt lat="49.28564" lon="-0.26886">
        <ele>0.14</ele>
        <time>2016-08-08T09:25:06Z</time>
      </trkpt>
      <trkpt lat="49.28561" lon="-0.26887">
        <ele>0.62</ele>
        <time>2016-08-08T09:25:07Z</time>
      </trkpt>
      <trkpt lat="49.28554" lon="-0.26889">
        <ele>0.14</ele>
        <time>2016-08-08T09:25:09Z</time>
      </trkpt>
      <trkpt lat="49.28552" lon="-0.26892">
        <ele>0.14</ele>
        <time>2016-08-08T09:25:10Z</time>
      </trkpt>
      <trkpt lat="49.28551" lon="-0.26897">
        <ele>0.62</ele>
        <time>2016-08-08T09:25:11Z</time>
      </trkpt>
      <trkpt lat="49.2855" lon="-0.26903">
        <ele>0.62</ele>
        <time>2016-08-08T09:25:12Z</time>
      </trkpt>
      <trkpt lat="49.28549" lon="-0.26909">
        <ele>0.62</ele>
        <time>2016-08-08T09:25:13Z</time>
      </trkpt>
      <trkpt lat="49.28547" lon="-0.26915">
        <ele>0.62</ele>
        <time>2016-08-08T09:25:14Z</time>
      </trkpt>
      <trkpt lat="49.28536" lon="-0.26965">
        <ele>1.1</ele>
        <time>2016-08-08T09:25:25Z</time>
      </trkpt>
      <trkpt lat="49.28539" lon="-0.26984">
        <ele>2.06</ele>
        <time>2016-08-08T09:25:36Z</time>
      </trkpt>
      <trkpt lat="49.28539" lon="-0.26985">
        <ele>2.54</ele>
        <time>2016-08-08T09:25:43Z</time>
      </trkpt>
      <trkpt lat="49.28539" lon="-0.26987">
        <ele>2.54</ele>
        <time>2016-08-08T09:25:44Z</time>
      </trkpt>
      <trkpt lat="49.2854" lon="-0.2699">
        <ele>2.54</ele>
        <time>2016-08-08T09:25:45Z</time>
      </trkpt>
      <trkpt lat="49.28541" lon="-0.26992">
        <ele>2.06</ele>
        <time>2016-08-08T09:25:46Z</time>
      </trkpt>
      <trkpt lat="49.28542" lon="-0.26995">
        <ele>2.06</ele>
        <time>2016-08-08T09:25:47Z</time>
      </trkpt>
      <trkpt lat="49.28543" lon="-0.26998">
        <ele>1.58</ele>
        <time>2016-08-08T09:25:48Z</time>
      </trkpt>
      <trkpt lat="49.28544" lon="-0.27001">
        <ele>1.58</ele>
        <time>2016-08-08T09:25:49Z</time>
      </trkpt>
      <trkpt lat="49.28546" lon="-0.27007">
        <ele>1.58</ele>
        <time>2016-08-08T09:25:51Z</time>
      </trkpt>
      <trkpt lat="49.28546" lon="-0.2701">
        <ele>2.06</ele>
        <time>2016-08-08T09:25:52Z</time>
      </trkpt>
      <trkpt lat="49.28546" lon="-0.27013">
        <ele>2.06</ele>
        <time>2016-08-08T09:25:53Z</time>
      </trkpt>
      <trkpt lat="49.28545" lon="-0.27016">
        <ele>2.54</ele>
        <time>2016-08-08T09:25:54Z</time>
      </trkpt>
      <trkpt lat="49.28544" lon="-0.2702">
        <ele>2.54</ele>
        <time>2016-08-08T09:25:55Z</time>
      </trkpt>
      <trkpt lat="49.28543" lon="-0.27023">
        <ele>2.06</ele>
        <time>2016-08-08T09:25:56Z</time>
      </trkpt>
      <trkpt lat="49.28542" lon="-0.27027">
        <ele>2.06</ele>
        <time>2016-08-08T09:25:57Z</time>
      </trkpt>
      <trkpt lat="49.28541" lon="-0.27031">
        <ele>2.06</ele>
        <time>2016-08-08T09:25:58Z</time>
      </trkpt>
      <trkpt lat="49.28554" lon="-0.27089">
        <ele>2.54</ele>
        <time>2016-08-08T09:26:10Z</time>
      </trkpt>
      <trkpt lat="49.28571" lon="-0.27142">
        <ele>3.02</ele>
        <time>2016-08-08T09:26:22Z</time>
      </trkpt>
      <trkpt lat="49.28576" lon="-0.27152">
        <ele>3.02</ele>
        <time>2016-08-08T09:26:25Z</time>
      </trkpt>
      <trkpt lat="49.28579" lon="-0.27152">
        <ele>3.02</ele>
        <time>2016-08-08T09:26:26Z</time>
      </trkpt>
      <trkpt lat="49.28581" lon="-0.27151">
        <ele>3.5</ele>
        <time>2016-08-08T09:26:27Z</time>
      </trkpt>
      <trkpt lat="49.28593" lon="-0.27139">
        <ele>3.98</ele>
        <time>2016-08-08T09:26:38Z</time>
      </trkpt>
      <trkpt lat="49.28593" lon="-0.27135">
        <ele>3.98</ele>
        <time>2016-08-08T09:26:47Z</time>
      </trkpt>
    </trkseg>
  </trk>
</gpx>